<?xml version="1.0" encoding="UTF-8" standalone="no" ?>
<gpx xmlns="http://www.topografix.com/GPX/1/1" xmlns:xsi="http://www.w3.org/2001/XMLSchema-instance" xsi:schemaLocation="http://www.topografix.com/GPX/1/1 http://www.topografix.com/GPX/1/1/gpx.xsd" version="1.1" creator="VisuGPX - https://www.visugpx.com">
  <metadata>
    <name>Entre St Hubert et le château de Javon</name>
    <desc><![CDATA[Randonnée au départ de la ferme de St Hubert et le château de Javon.]]></desc>
  </metadata>
  <trk>
    <name><![CDATA[2018-11-12 15:05:03]]></name>
    <trkseg>
      <trkpt lat="44.02746" lon="5.3208">
        <ele>825.91</ele>
        <time>2018-11-12T08:36:11Z</time>
      </trkpt>
      <trkpt lat="44.02746" lon="5.32079">
        <ele>825.91</ele>
        <time>2018-11-12T08:36:12Z</time>
      </trkpt>
      <trkpt lat="44.02746" lon="5.32079">
        <ele>824.47</ele>
        <time>2018-11-12T08:36:17Z</time>
      </trkpt>
      <trkpt lat="44.02747" lon="5.32079">
        <ele>824.47</ele>
        <time>2018-11-12T08:36:38Z</time>
      </trkpt>
      <trkpt lat="44.02743" lon="5.32086">
        <ele>822.55</ele>
        <time>2018-11-12T08:36:53Z</time>
      </trkpt>
      <trkpt lat="44.02741" lon="5.32089">
        <ele>822.55</ele>
        <time>2018-11-12T08:37:07Z</time>
      </trkpt>
      <trkpt lat="44.0274" lon="5.3209">
        <ele>822.55</ele>
        <time>2018-11-12T08:37:28Z</time>
      </trkpt>
      <trkpt lat="44.0274" lon="5.32091">
        <ele>822.55</ele>
        <time>2018-11-12T08:37:57Z</time>
      </trkpt>
      <trkpt lat="44.02735" lon="5.32085">
        <ele>822.55</ele>
        <time>2018-11-12T08:38:21Z</time>
      </trkpt>
      <trkpt lat="44.02727" lon="5.32073">
        <ele>824.95</ele>
        <time>2018-11-12T08:38:36Z</time>
      </trkpt>
      <trkpt lat="44.02726" lon="5.32073">
        <ele>824.95</ele>
        <time>2018-11-12T08:38:37Z</time>
      </trkpt>
      <trkpt lat="44.02725" lon="5.32073">
        <ele>821.1</ele>
        <time>2018-11-12T08:38:40Z</time>
      </trkpt>
      <trkpt lat="44.02724" lon="5.32073">
        <ele>821.1</ele>
        <time>2018-11-12T08:38:41Z</time>
      </trkpt>
      <trkpt lat="44.02721" lon="5.32075">
        <ele>824.47</ele>
        <time>2018-11-12T08:38:45Z</time>
      </trkpt>
      <trkpt lat="44.0272" lon="5.32076">
        <ele>824.47</ele>
        <time>2018-11-12T08:38:46Z</time>
      </trkpt>
      <trkpt lat="44.02701" lon="5.3208">
        <ele>824.47</ele>
        <time>2018-11-12T08:39:02Z</time>
      </trkpt>
      <trkpt lat="44.02692" lon="5.32078">
        <ele>822.06</ele>
        <time>2018-11-12T08:39:09Z</time>
      </trkpt>
      <trkpt lat="44.0269" lon="5.32077">
        <ele>823.51</ele>
        <time>2018-11-12T08:39:11Z</time>
      </trkpt>
      <trkpt lat="44.02675" lon="5.32072">
        <ele>824.95</ele>
        <time>2018-11-12T08:39:26Z</time>
      </trkpt>
      <trkpt lat="44.02657" lon="5.32065">
        <ele>824.95</ele>
        <time>2018-11-12T08:39:41Z</time>
      </trkpt>
      <trkpt lat="44.0264" lon="5.32058">
        <ele>825.91</ele>
        <time>2018-11-12T08:39:56Z</time>
      </trkpt>
      <trkpt lat="44.02637" lon="5.32055">
        <ele>825.91</ele>
        <time>2018-11-12T08:40:00Z</time>
      </trkpt>
      <trkpt lat="44.02635" lon="5.32045">
        <ele>825.91</ele>
        <time>2018-11-12T08:40:13Z</time>
      </trkpt>
      <trkpt lat="44.02635" lon="5.32046">
        <ele>825.91</ele>
        <time>2018-11-12T08:40:35Z</time>
      </trkpt>
      <trkpt lat="44.02633" lon="5.32045">
        <ele>826.39</ele>
        <time>2018-11-12T08:40:59Z</time>
      </trkpt>
      <trkpt lat="44.02622" lon="5.32031">
        <ele>826.87</ele>
        <time>2018-11-12T08:41:14Z</time>
      </trkpt>
      <trkpt lat="44.02612" lon="5.32016">
        <ele>827.35</ele>
        <time>2018-11-12T08:41:31Z</time>
      </trkpt>
      <trkpt lat="44.02603" lon="5.32001">
        <ele>828.79</ele>
        <time>2018-11-12T08:41:48Z</time>
      </trkpt>
      <trkpt lat="44.02602" lon="5.31999">
        <ele>828.79</ele>
        <time>2018-11-12T08:41:50Z</time>
      </trkpt>
      <trkpt lat="44.02601" lon="5.31997">
        <ele>828.79</ele>
        <time>2018-11-12T08:41:52Z</time>
      </trkpt>
      <trkpt lat="44.0259" lon="5.3198">
        <ele>829.27</ele>
        <time>2018-11-12T08:42:08Z</time>
      </trkpt>
      <trkpt lat="44.02586" lon="5.31964">
        <ele>829.76</ele>
        <time>2018-11-12T08:42:22Z</time>
      </trkpt>
      <trkpt lat="44.02585" lon="5.3196">
        <ele>830.24</ele>
        <time>2018-11-12T08:42:25Z</time>
      </trkpt>
      <trkpt lat="44.02588" lon="5.31941">
        <ele>830.72</ele>
        <time>2018-11-12T08:42:40Z</time>
      </trkpt>
      <trkpt lat="44.02588" lon="5.31939">
        <ele>830.72</ele>
        <time>2018-11-12T08:42:42Z</time>
      </trkpt>
      <trkpt lat="44.02587" lon="5.31926">
        <ele>829.76</ele>
        <time>2018-11-12T08:42:55Z</time>
      </trkpt>
      <trkpt lat="44.02575" lon="5.31921">
        <ele>829.76</ele>
        <time>2018-11-12T08:43:10Z</time>
      </trkpt>
      <trkpt lat="44.02563" lon="5.31916">
        <ele>829.76</ele>
        <time>2018-11-12T08:43:24Z</time>
      </trkpt>
      <trkpt lat="44.02551" lon="5.31909">
        <ele>828.79</ele>
        <time>2018-11-12T08:43:37Z</time>
      </trkpt>
      <trkpt lat="44.02543" lon="5.31903">
        <ele>828.79</ele>
        <time>2018-11-12T08:43:45Z</time>
      </trkpt>
      <trkpt lat="44.02532" lon="5.31896">
        <ele>828.79</ele>
        <time>2018-11-12T08:43:59Z</time>
      </trkpt>
      <trkpt lat="44.02523" lon="5.3189">
        <ele>827.83</ele>
        <time>2018-11-12T08:44:13Z</time>
      </trkpt>
      <trkpt lat="44.02508" lon="5.31882">
        <ele>826.87</ele>
        <time>2018-11-12T08:44:29Z</time>
      </trkpt>
      <trkpt lat="44.02496" lon="5.31874">
        <ele>826.87</ele>
        <time>2018-11-12T08:44:43Z</time>
      </trkpt>
      <trkpt lat="44.02483" lon="5.31869">
        <ele>826.39</ele>
        <time>2018-11-12T08:44:57Z</time>
      </trkpt>
      <trkpt lat="44.02473" lon="5.31861">
        <ele>825.43</ele>
        <time>2018-11-12T08:45:10Z</time>
      </trkpt>
      <trkpt lat="44.02459" lon="5.31856">
        <ele>823.51</ele>
        <time>2018-11-12T08:45:27Z</time>
      </trkpt>
      <trkpt lat="44.02445" lon="5.3185">
        <ele>823.03</ele>
        <time>2018-11-12T08:45:41Z</time>
      </trkpt>
      <trkpt lat="44.02433" lon="5.31848">
        <ele>821.1</ele>
        <time>2018-11-12T08:45:57Z</time>
      </trkpt>
      <trkpt lat="44.02431" lon="5.31849">
        <ele>822.06</ele>
        <time>2018-11-12T08:46:01Z</time>
      </trkpt>
      <trkpt lat="44.02428" lon="5.31847">
        <ele>820.62</ele>
        <time>2018-11-12T08:46:11Z</time>
      </trkpt>
      <trkpt lat="44.02426" lon="5.31844">
        <ele>820.62</ele>
        <time>2018-11-12T08:46:31Z</time>
      </trkpt>
      <trkpt lat="44.02428" lon="5.31845">
        <ele>821.58</ele>
        <time>2018-11-12T08:46:53Z</time>
      </trkpt>
      <trkpt lat="44.02427" lon="5.31844">
        <ele>820.14</ele>
        <time>2018-11-12T08:47:09Z</time>
      </trkpt>
      <trkpt lat="44.02424" lon="5.31829">
        <ele>820.14</ele>
        <time>2018-11-12T08:47:22Z</time>
      </trkpt>
      <trkpt lat="44.02415" lon="5.31816">
        <ele>818.7</ele>
        <time>2018-11-12T08:47:37Z</time>
      </trkpt>
      <trkpt lat="44.0241" lon="5.318">
        <ele>816.78</ele>
        <time>2018-11-12T08:47:53Z</time>
      </trkpt>
      <trkpt lat="44.02404" lon="5.31785">
        <ele>814.85</ele>
        <time>2018-11-12T08:48:08Z</time>
      </trkpt>
      <trkpt lat="44.02393" lon="5.3178">
        <ele>813.41</ele>
        <time>2018-11-12T08:48:24Z</time>
      </trkpt>
      <trkpt lat="44.02383" lon="5.31781">
        <ele>811.49</ele>
        <time>2018-11-12T08:48:39Z</time>
      </trkpt>
      <trkpt lat="44.02372" lon="5.31786">
        <ele>810.05</ele>
        <time>2018-11-12T08:48:53Z</time>
      </trkpt>
      <trkpt lat="44.02362" lon="5.31787">
        <ele>809.09</ele>
        <time>2018-11-12T08:49:06Z</time>
      </trkpt>
      <trkpt lat="44.02346" lon="5.31786">
        <ele>808.13</ele>
        <time>2018-11-12T08:49:22Z</time>
      </trkpt>
      <trkpt lat="44.0234" lon="5.31786">
        <ele>807.16</ele>
        <time>2018-11-12T08:49:29Z</time>
      </trkpt>
      <trkpt lat="44.0233" lon="5.31786">
        <ele>806.2</ele>
        <time>2018-11-12T08:49:40Z</time>
      </trkpt>
      <trkpt lat="44.02317" lon="5.31788">
        <ele>804.28</ele>
        <time>2018-11-12T08:49:57Z</time>
      </trkpt>
      <trkpt lat="44.02304" lon="5.31786">
        <ele>802.84</ele>
        <time>2018-11-12T08:50:11Z</time>
      </trkpt>
      <trkpt lat="44.02291" lon="5.31789">
        <ele>801.88</ele>
        <time>2018-11-12T08:50:28Z</time>
      </trkpt>
      <trkpt lat="44.02282" lon="5.31795">
        <ele>799.47</ele>
        <time>2018-11-12T08:50:42Z</time>
      </trkpt>
      <trkpt lat="44.0227" lon="5.31803">
        <ele>798.03</ele>
        <time>2018-11-12T08:50:59Z</time>
      </trkpt>
      <trkpt lat="44.02256" lon="5.31814">
        <ele>796.59</ele>
        <time>2018-11-12T08:51:15Z</time>
      </trkpt>
      <trkpt lat="44.0224" lon="5.31823">
        <ele>795.63</ele>
        <time>2018-11-12T08:51:32Z</time>
      </trkpt>
      <trkpt lat="44.02229" lon="5.31827">
        <ele>794.67</ele>
        <time>2018-11-12T08:51:46Z</time>
      </trkpt>
      <trkpt lat="44.02216" lon="5.31832">
        <ele>793.22</ele>
        <time>2018-11-12T08:52:02Z</time>
      </trkpt>
      <trkpt lat="44.02205" lon="5.31845">
        <ele>791.78</ele>
        <time>2018-11-12T08:52:17Z</time>
      </trkpt>
      <trkpt lat="44.02191" lon="5.3185">
        <ele>790.34</ele>
        <time>2018-11-12T08:52:33Z</time>
      </trkpt>
      <trkpt lat="44.02176" lon="5.31852">
        <ele>789.38</ele>
        <time>2018-11-12T08:52:48Z</time>
      </trkpt>
      <trkpt lat="44.02165" lon="5.31856">
        <ele>788.42</ele>
        <time>2018-11-12T08:53:05Z</time>
      </trkpt>
      <trkpt lat="44.02156" lon="5.31872">
        <ele>787.94</ele>
        <time>2018-11-12T08:53:20Z</time>
      </trkpt>
      <trkpt lat="44.02141" lon="5.31884">
        <ele>785.53</ele>
        <time>2018-11-12T08:53:37Z</time>
      </trkpt>
      <trkpt lat="44.02131" lon="5.3189">
        <ele>785.05</ele>
        <time>2018-11-12T08:53:51Z</time>
      </trkpt>
      <trkpt lat="44.02115" lon="5.31889">
        <ele>783.61</ele>
        <time>2018-11-12T08:54:08Z</time>
      </trkpt>
      <trkpt lat="44.02105" lon="5.31885">
        <ele>783.61</ele>
        <time>2018-11-12T08:54:21Z</time>
      </trkpt>
      <trkpt lat="44.02088" lon="5.31877">
        <ele>782.17</ele>
        <time>2018-11-12T08:54:37Z</time>
      </trkpt>
      <trkpt lat="44.02075" lon="5.31868">
        <ele>780.73</ele>
        <time>2018-11-12T08:54:51Z</time>
      </trkpt>
      <trkpt lat="44.02062" lon="5.31859">
        <ele>780.73</ele>
        <time>2018-11-12T08:55:05Z</time>
      </trkpt>
      <trkpt lat="44.02054" lon="5.31857">
        <ele>780.25</ele>
        <time>2018-11-12T08:55:12Z</time>
      </trkpt>
      <trkpt lat="44.02045" lon="5.31856">
        <ele>780.25</ele>
        <time>2018-11-12T08:55:22Z</time>
      </trkpt>
      <trkpt lat="44.02031" lon="5.31857">
        <ele>780.25</ele>
        <time>2018-11-12T08:55:36Z</time>
      </trkpt>
      <trkpt lat="44.02013" lon="5.31862">
        <ele>778.81</ele>
        <time>2018-11-12T08:55:53Z</time>
      </trkpt>
      <trkpt lat="44.01997" lon="5.31865">
        <ele>777.84</ele>
        <time>2018-11-12T08:56:09Z</time>
      </trkpt>
      <trkpt lat="44.01995" lon="5.31865">
        <ele>776.4</ele>
        <time>2018-11-12T08:56:11Z</time>
      </trkpt>
      <trkpt lat="44.01981" lon="5.31863">
        <ele>777.84</ele>
        <time>2018-11-12T08:56:25Z</time>
      </trkpt>
      <trkpt lat="44.01964" lon="5.31857">
        <ele>776.4</ele>
        <time>2018-11-12T08:56:41Z</time>
      </trkpt>
      <trkpt lat="44.01961" lon="5.31855">
        <ele>776.4</ele>
        <time>2018-11-12T08:56:45Z</time>
      </trkpt>
      <trkpt lat="44.01949" lon="5.31843">
        <ele>775.44</ele>
        <time>2018-11-12T08:57:00Z</time>
      </trkpt>
      <trkpt lat="44.01942" lon="5.3184">
        <ele>775.44</ele>
        <time>2018-11-12T08:57:07Z</time>
      </trkpt>
      <trkpt lat="44.01931" lon="5.31828">
        <ele>773.52</ele>
        <time>2018-11-12T08:57:21Z</time>
      </trkpt>
      <trkpt lat="44.01928" lon="5.31821">
        <ele>774.96</ele>
        <time>2018-11-12T08:57:26Z</time>
      </trkpt>
      <trkpt lat="44.01923" lon="5.31813">
        <ele>773.52</ele>
        <time>2018-11-12T08:57:33Z</time>
      </trkpt>
      <trkpt lat="44.01914" lon="5.31794">
        <ele>771.6</ele>
        <time>2018-11-12T08:57:48Z</time>
      </trkpt>
      <trkpt lat="44.01911" lon="5.31788">
        <ele>772.08</ele>
        <time>2018-11-12T08:57:52Z</time>
      </trkpt>
      <trkpt lat="44.01899" lon="5.31774">
        <ele>772.08</ele>
        <time>2018-11-12T08:58:08Z</time>
      </trkpt>
      <trkpt lat="44.0189" lon="5.31772">
        <ele>771.11</ele>
        <time>2018-11-12T08:58:20Z</time>
      </trkpt>
      <trkpt lat="44.0189" lon="5.31771">
        <ele>772.08</ele>
        <time>2018-11-12T08:58:37Z</time>
      </trkpt>
      <trkpt lat="44.0189" lon="5.31771">
        <ele>772.08</ele>
        <time>2018-11-12T08:58:38Z</time>
      </trkpt>
      <trkpt lat="44.01888" lon="5.31771">
        <ele>770.63</ele>
        <time>2018-11-12T08:58:43Z</time>
      </trkpt>
      <trkpt lat="44.01884" lon="5.3177">
        <ele>772.56</ele>
        <time>2018-11-12T08:59:06Z</time>
      </trkpt>
      <trkpt lat="44.01871" lon="5.3177">
        <ele>770.15</ele>
        <time>2018-11-12T08:59:22Z</time>
      </trkpt>
      <trkpt lat="44.01857" lon="5.3177">
        <ele>770.15</ele>
        <time>2018-11-12T08:59:38Z</time>
      </trkpt>
      <trkpt lat="44.01845" lon="5.31756">
        <ele>769.19</ele>
        <time>2018-11-12T08:59:55Z</time>
      </trkpt>
      <trkpt lat="44.01838" lon="5.31741">
        <ele>768.71</ele>
        <time>2018-11-12T09:00:09Z</time>
      </trkpt>
      <trkpt lat="44.01836" lon="5.31735">
        <ele>768.71</ele>
        <time>2018-11-12T09:00:15Z</time>
      </trkpt>
      <trkpt lat="44.01832" lon="5.31728">
        <ele>767.75</ele>
        <time>2018-11-12T09:00:23Z</time>
      </trkpt>
      <trkpt lat="44.01821" lon="5.31707">
        <ele>767.27</ele>
        <time>2018-11-12T09:00:40Z</time>
      </trkpt>
      <trkpt lat="44.01811" lon="5.31695">
        <ele>766.79</ele>
        <time>2018-11-12T09:00:53Z</time>
      </trkpt>
      <trkpt lat="44.018" lon="5.31684">
        <ele>765.35</ele>
        <time>2018-11-12T09:01:06Z</time>
      </trkpt>
      <trkpt lat="44.01789" lon="5.31674">
        <ele>765.35</ele>
        <time>2018-11-12T09:01:18Z</time>
      </trkpt>
      <trkpt lat="44.0178" lon="5.31659">
        <ele>764.39</ele>
        <time>2018-11-12T09:01:33Z</time>
      </trkpt>
      <trkpt lat="44.01775" lon="5.31638">
        <ele>763.42</ele>
        <time>2018-11-12T09:01:50Z</time>
      </trkpt>
      <trkpt lat="44.01774" lon="5.31637">
        <ele>763.42</ele>
        <time>2018-11-12T09:01:51Z</time>
      </trkpt>
      <trkpt lat="44.01767" lon="5.3162">
        <ele>761.98</ele>
        <time>2018-11-12T09:02:06Z</time>
      </trkpt>
      <trkpt lat="44.01755" lon="5.31609">
        <ele>761.5</ele>
        <time>2018-11-12T09:02:19Z</time>
      </trkpt>
      <trkpt lat="44.01742" lon="5.31602">
        <ele>761.02</ele>
        <time>2018-11-12T09:02:34Z</time>
      </trkpt>
      <trkpt lat="44.01731" lon="5.31591">
        <ele>760.54</ele>
        <time>2018-11-12T09:02:48Z</time>
      </trkpt>
      <trkpt lat="44.01721" lon="5.31576">
        <ele>760.06</ele>
        <time>2018-11-12T09:03:02Z</time>
      </trkpt>
      <trkpt lat="44.0172" lon="5.31572">
        <ele>760.06</ele>
        <time>2018-11-12T09:03:05Z</time>
      </trkpt>
      <trkpt lat="44.01715" lon="5.31556">
        <ele>759.58</ele>
        <time>2018-11-12T09:03:19Z</time>
      </trkpt>
      <trkpt lat="44.01711" lon="5.31531">
        <ele>758.14</ele>
        <time>2018-11-12T09:03:35Z</time>
      </trkpt>
      <trkpt lat="44.01706" lon="5.31517">
        <ele>757.66</ele>
        <time>2018-11-12T09:03:49Z</time>
      </trkpt>
      <trkpt lat="44.01692" lon="5.31504">
        <ele>756.21</ele>
        <time>2018-11-12T09:04:05Z</time>
      </trkpt>
      <trkpt lat="44.01682" lon="5.31496">
        <ele>755.73</ele>
        <time>2018-11-12T09:04:22Z</time>
      </trkpt>
      <trkpt lat="44.01671" lon="5.31491">
        <ele>755.25</ele>
        <time>2018-11-12T09:04:36Z</time>
      </trkpt>
      <trkpt lat="44.01654" lon="5.31484">
        <ele>755.25</ele>
        <time>2018-11-12T09:04:50Z</time>
      </trkpt>
      <trkpt lat="44.01638" lon="5.31473">
        <ele>753.81</ele>
        <time>2018-11-12T09:05:04Z</time>
      </trkpt>
      <trkpt lat="44.01626" lon="5.31467">
        <ele>753.33</ele>
        <time>2018-11-12T09:05:17Z</time>
      </trkpt>
      <trkpt lat="44.01614" lon="5.31454">
        <ele>752.85</ele>
        <time>2018-11-12T09:05:32Z</time>
      </trkpt>
      <trkpt lat="44.01606" lon="5.31442">
        <ele>751.89</ele>
        <time>2018-11-12T09:05:45Z</time>
      </trkpt>
      <trkpt lat="44.01593" lon="5.31427">
        <ele>751.41</ele>
        <time>2018-11-12T09:06:02Z</time>
      </trkpt>
      <trkpt lat="44.01583" lon="5.31417">
        <ele>750.45</ele>
        <time>2018-11-12T09:06:16Z</time>
      </trkpt>
      <trkpt lat="44.01571" lon="5.31408">
        <ele>750.45</ele>
        <time>2018-11-12T09:06:31Z</time>
      </trkpt>
      <trkpt lat="44.0156" lon="5.31404">
        <ele>749.97</ele>
        <time>2018-11-12T09:06:46Z</time>
      </trkpt>
      <trkpt lat="44.01545" lon="5.31393">
        <ele>748.52</ele>
        <time>2018-11-12T09:06:59Z</time>
      </trkpt>
      <trkpt lat="44.01533" lon="5.31382">
        <ele>747.56</ele>
        <time>2018-11-12T09:07:14Z</time>
      </trkpt>
      <trkpt lat="44.01526" lon="5.31366">
        <ele>746.6</ele>
        <time>2018-11-12T09:07:30Z</time>
      </trkpt>
      <trkpt lat="44.01517" lon="5.31344">
        <ele>745.64</ele>
        <time>2018-11-12T09:07:45Z</time>
      </trkpt>
      <trkpt lat="44.01508" lon="5.31327">
        <ele>745.16</ele>
        <time>2018-11-12T09:08:00Z</time>
      </trkpt>
      <trkpt lat="44.01494" lon="5.31311">
        <ele>745.16</ele>
        <time>2018-11-12T09:08:16Z</time>
      </trkpt>
      <trkpt lat="44.01486" lon="5.31302">
        <ele>745.16</ele>
        <time>2018-11-12T09:08:31Z</time>
      </trkpt>
      <trkpt lat="44.01473" lon="5.31289">
        <ele>744.68</ele>
        <time>2018-11-12T09:08:46Z</time>
      </trkpt>
      <trkpt lat="44.01459" lon="5.31279">
        <ele>743.72</ele>
        <time>2018-11-12T09:09:03Z</time>
      </trkpt>
      <trkpt lat="44.01448" lon="5.31277">
        <ele>742.76</ele>
        <time>2018-11-12T09:09:17Z</time>
      </trkpt>
      <trkpt lat="44.01438" lon="5.31277">
        <ele>742.28</ele>
        <time>2018-11-12T09:09:29Z</time>
      </trkpt>
      <trkpt lat="44.01421" lon="5.31276">
        <ele>741.79</ele>
        <time>2018-11-12T09:09:44Z</time>
      </trkpt>
      <trkpt lat="44.01405" lon="5.31282">
        <ele>740.83</ele>
        <time>2018-11-12T09:09:58Z</time>
      </trkpt>
      <trkpt lat="44.01394" lon="5.31286">
        <ele>740.35</ele>
        <time>2018-11-12T09:10:12Z</time>
      </trkpt>
      <trkpt lat="44.01381" lon="5.31287">
        <ele>740.35</ele>
        <time>2018-11-12T09:10:25Z</time>
      </trkpt>
      <trkpt lat="44.01367" lon="5.31283">
        <ele>739.39</ele>
        <time>2018-11-12T09:10:39Z</time>
      </trkpt>
      <trkpt lat="44.01357" lon="5.31273">
        <ele>738.43</ele>
        <time>2018-11-12T09:10:52Z</time>
      </trkpt>
      <trkpt lat="44.01343" lon="5.31258">
        <ele>737.95</ele>
        <time>2018-11-12T09:11:08Z</time>
      </trkpt>
      <trkpt lat="44.01329" lon="5.31235">
        <ele>736.99</ele>
        <time>2018-11-12T09:11:27Z</time>
      </trkpt>
      <trkpt lat="44.01321" lon="5.31215">
        <ele>736.03</ele>
        <time>2018-11-12T09:11:41Z</time>
      </trkpt>
      <trkpt lat="44.01315" lon="5.31194">
        <ele>735.55</ele>
        <time>2018-11-12T09:11:57Z</time>
      </trkpt>
      <trkpt lat="44.01311" lon="5.3118">
        <ele>735.55</ele>
        <time>2018-11-12T09:12:09Z</time>
      </trkpt>
      <trkpt lat="44.01302" lon="5.31166">
        <ele>735.07</ele>
        <time>2018-11-12T09:12:23Z</time>
      </trkpt>
      <trkpt lat="44.01289" lon="5.31151">
        <ele>733.62</ele>
        <time>2018-11-12T09:12:37Z</time>
      </trkpt>
      <trkpt lat="44.0128" lon="5.31145">
        <ele>733.62</ele>
        <time>2018-11-12T09:12:51Z</time>
      </trkpt>
      <trkpt lat="44.0127" lon="5.31138">
        <ele>731.7</ele>
        <time>2018-11-12T09:13:04Z</time>
      </trkpt>
      <trkpt lat="44.01265" lon="5.31137">
        <ele>732.66</ele>
        <time>2018-11-12T09:13:10Z</time>
      </trkpt>
      <trkpt lat="44.01251" lon="5.31131">
        <ele>732.66</ele>
        <time>2018-11-12T09:13:25Z</time>
      </trkpt>
      <trkpt lat="44.01246" lon="5.3113">
        <ele>731.7</ele>
        <time>2018-11-12T09:13:29Z</time>
      </trkpt>
      <trkpt lat="44.01237" lon="5.31129">
        <ele>730.74</ele>
        <time>2018-11-12T09:13:46Z</time>
      </trkpt>
      <trkpt lat="44.01217" lon="5.3112">
        <ele>730.26</ele>
        <time>2018-11-12T09:14:01Z</time>
      </trkpt>
      <trkpt lat="44.01198" lon="5.3112">
        <ele>730.26</ele>
        <time>2018-11-12T09:14:18Z</time>
      </trkpt>
      <trkpt lat="44.01183" lon="5.31121">
        <ele>729.78</ele>
        <time>2018-11-12T09:14:32Z</time>
      </trkpt>
      <trkpt lat="44.01171" lon="5.31122">
        <ele>728.34</ele>
        <time>2018-11-12T09:14:45Z</time>
      </trkpt>
      <trkpt lat="44.01158" lon="5.31121">
        <ele>728.34</ele>
        <time>2018-11-12T09:14:59Z</time>
      </trkpt>
      <trkpt lat="44.01144" lon="5.31119">
        <ele>727.86</ele>
        <time>2018-11-12T09:15:11Z</time>
      </trkpt>
      <trkpt lat="44.01128" lon="5.31115">
        <ele>726.89</ele>
        <time>2018-11-12T09:15:26Z</time>
      </trkpt>
      <trkpt lat="44.01112" lon="5.31115">
        <ele>725.93</ele>
        <time>2018-11-12T09:15:43Z</time>
      </trkpt>
      <trkpt lat="44.01097" lon="5.31115">
        <ele>725.45</ele>
        <time>2018-11-12T09:15:58Z</time>
      </trkpt>
      <trkpt lat="44.01087" lon="5.31116">
        <ele>724.49</ele>
        <time>2018-11-12T09:16:11Z</time>
      </trkpt>
      <trkpt lat="44.01077" lon="5.31116">
        <ele>724.01</ele>
        <time>2018-11-12T09:16:23Z</time>
      </trkpt>
      <trkpt lat="44.01066" lon="5.31118">
        <ele>724.01</ele>
        <time>2018-11-12T09:16:37Z</time>
      </trkpt>
      <trkpt lat="44.0105" lon="5.31116">
        <ele>723.05</ele>
        <time>2018-11-12T09:16:51Z</time>
      </trkpt>
      <trkpt lat="44.01029" lon="5.31108">
        <ele>722.09</ele>
        <time>2018-11-12T09:17:05Z</time>
      </trkpt>
      <trkpt lat="44.01013" lon="5.31103">
        <ele>721.61</ele>
        <time>2018-11-12T09:17:20Z</time>
      </trkpt>
      <trkpt lat="44.01003" lon="5.31104">
        <ele>721.13</ele>
        <time>2018-11-12T09:17:33Z</time>
      </trkpt>
      <trkpt lat="44.00989" lon="5.31108">
        <ele>720.16</ele>
        <time>2018-11-12T09:17:47Z</time>
      </trkpt>
      <trkpt lat="44.00961" lon="5.31117">
        <ele>719.68</ele>
        <time>2018-11-12T09:18:05Z</time>
      </trkpt>
      <trkpt lat="44.00945" lon="5.31118">
        <ele>718.72</ele>
        <time>2018-11-12T09:18:19Z</time>
      </trkpt>
      <trkpt lat="44.00929" lon="5.31112">
        <ele>718.24</ele>
        <time>2018-11-12T09:18:34Z</time>
      </trkpt>
      <trkpt lat="44.0091" lon="5.31103">
        <ele>716.8</ele>
        <time>2018-11-12T09:18:52Z</time>
      </trkpt>
      <trkpt lat="44.00893" lon="5.31096">
        <ele>716.8</ele>
        <time>2018-11-12T09:19:07Z</time>
      </trkpt>
      <trkpt lat="44.00879" lon="5.31083">
        <ele>715.84</ele>
        <time>2018-11-12T09:19:21Z</time>
      </trkpt>
      <trkpt lat="44.00863" lon="5.31073">
        <ele>715.36</ele>
        <time>2018-11-12T09:19:36Z</time>
      </trkpt>
      <trkpt lat="44.0085" lon="5.31067">
        <ele>715.36</ele>
        <time>2018-11-12T09:19:49Z</time>
      </trkpt>
      <trkpt lat="44.00835" lon="5.31062">
        <ele>714.4</ele>
        <time>2018-11-12T09:20:06Z</time>
      </trkpt>
      <trkpt lat="44.0082" lon="5.31059">
        <ele>713.44</ele>
        <time>2018-11-12T09:20:21Z</time>
      </trkpt>
      <trkpt lat="44.00796" lon="5.3105">
        <ele>712.47</ele>
        <time>2018-11-12T09:20:40Z</time>
      </trkpt>
      <trkpt lat="44.00777" lon="5.31039">
        <ele>711.51</ele>
        <time>2018-11-12T09:20:58Z</time>
      </trkpt>
      <trkpt lat="44.00768" lon="5.31026">
        <ele>711.51</ele>
        <time>2018-11-12T09:21:11Z</time>
      </trkpt>
      <trkpt lat="44.00756" lon="5.31004">
        <ele>710.55</ele>
        <time>2018-11-12T09:21:28Z</time>
      </trkpt>
      <trkpt lat="44.00755" lon="5.31">
        <ele>710.55</ele>
        <time>2018-11-12T09:21:31Z</time>
      </trkpt>
      <trkpt lat="44.00745" lon="5.30981">
        <ele>710.07</ele>
        <time>2018-11-12T09:21:47Z</time>
      </trkpt>
      <trkpt lat="44.00735" lon="5.30963">
        <ele>709.11</ele>
        <time>2018-11-12T09:22:02Z</time>
      </trkpt>
      <trkpt lat="44.00723" lon="5.30951">
        <ele>708.15</ele>
        <time>2018-11-12T09:22:16Z</time>
      </trkpt>
      <trkpt lat="44.0071" lon="5.3094">
        <ele>708.63</ele>
        <time>2018-11-12T09:22:30Z</time>
      </trkpt>
      <trkpt lat="44.007" lon="5.30934">
        <ele>708.63</ele>
        <time>2018-11-12T09:22:40Z</time>
      </trkpt>
      <trkpt lat="44.00685" lon="5.30928">
        <ele>707.19</ele>
        <time>2018-11-12T09:22:57Z</time>
      </trkpt>
      <trkpt lat="44.0067" lon="5.30921">
        <ele>706.71</ele>
        <time>2018-11-12T09:23:13Z</time>
      </trkpt>
      <trkpt lat="44.0065" lon="5.30911">
        <ele>706.23</ele>
        <time>2018-11-12T09:23:32Z</time>
      </trkpt>
      <trkpt lat="44.00632" lon="5.30899">
        <ele>706.23</ele>
        <time>2018-11-12T09:23:49Z</time>
      </trkpt>
      <trkpt lat="44.00617" lon="5.30892">
        <ele>704.78</ele>
        <time>2018-11-12T09:24:03Z</time>
      </trkpt>
      <trkpt lat="44.0061" lon="5.30896">
        <ele>705.26</ele>
        <time>2018-11-12T09:24:17Z</time>
      </trkpt>
      <trkpt lat="44.00609" lon="5.30899">
        <ele>706.23</ele>
        <time>2018-11-12T09:24:36Z</time>
      </trkpt>
      <trkpt lat="44.00609" lon="5.30897">
        <ele>705.75</ele>
        <time>2018-11-12T09:24:57Z</time>
      </trkpt>
      <trkpt lat="44.00608" lon="5.30897">
        <ele>706.71</ele>
        <time>2018-11-12T09:25:09Z</time>
      </trkpt>
      <trkpt lat="44.00608" lon="5.30898">
        <ele>705.75</ele>
        <time>2018-11-12T09:25:34Z</time>
      </trkpt>
      <trkpt lat="44.0061" lon="5.30898">
        <ele>705.75</ele>
        <time>2018-11-12T09:25:48Z</time>
      </trkpt>
      <trkpt lat="44.0061" lon="5.30901">
        <ele>705.75</ele>
        <time>2018-11-12T09:26:05Z</time>
      </trkpt>
      <trkpt lat="44.00611" lon="5.309">
        <ele>705.75</ele>
        <time>2018-11-12T09:26:41Z</time>
      </trkpt>
      <trkpt lat="44.00612" lon="5.309">
        <ele>705.75</ele>
        <time>2018-11-12T09:27:21Z</time>
      </trkpt>
      <trkpt lat="44.00614" lon="5.30902">
        <ele>706.23</ele>
        <time>2018-11-12T09:27:56Z</time>
      </trkpt>
      <trkpt lat="44.00612" lon="5.30902">
        <ele>706.23</ele>
        <time>2018-11-12T09:28:32Z</time>
      </trkpt>
      <trkpt lat="44.00612" lon="5.309">
        <ele>707.67</ele>
        <time>2018-11-12T09:28:48Z</time>
      </trkpt>
      <trkpt lat="44.00612" lon="5.30902">
        <ele>706.71</ele>
        <time>2018-11-12T09:29:11Z</time>
      </trkpt>
      <trkpt lat="44.0061" lon="5.309">
        <ele>707.67</ele>
        <time>2018-11-12T09:29:46Z</time>
      </trkpt>
      <trkpt lat="44.00611" lon="5.30899">
        <ele>706.71</ele>
        <time>2018-11-12T09:30:18Z</time>
      </trkpt>
      <trkpt lat="44.00609" lon="5.309">
        <ele>706.71</ele>
        <time>2018-11-12T09:30:53Z</time>
      </trkpt>
      <trkpt lat="44.00609" lon="5.309">
        <ele>707.19</ele>
        <time>2018-11-12T09:31:28Z</time>
      </trkpt>
      <trkpt lat="44.00611" lon="5.30901">
        <ele>706.71</ele>
        <time>2018-11-12T09:32:02Z</time>
      </trkpt>
      <trkpt lat="44.00611" lon="5.30901">
        <ele>708.15</ele>
        <time>2018-11-12T09:32:06Z</time>
      </trkpt>
      <trkpt lat="44.00612" lon="5.30901">
        <ele>708.15</ele>
        <time>2018-11-12T09:32:36Z</time>
      </trkpt>
      <trkpt lat="44.00609" lon="5.30901">
        <ele>708.63</ele>
        <time>2018-11-12T09:33:02Z</time>
      </trkpt>
      <trkpt lat="44.00608" lon="5.30901">
        <ele>705.26</ele>
        <time>2018-11-12T09:33:03Z</time>
      </trkpt>
      <trkpt lat="44.00609" lon="5.30901">
        <ele>709.11</ele>
        <time>2018-11-12T09:33:04Z</time>
      </trkpt>
      <trkpt lat="44.00608" lon="5.30896">
        <ele>709.11</ele>
        <time>2018-11-12T09:33:21Z</time>
      </trkpt>
      <trkpt lat="44.00607" lon="5.30898">
        <ele>709.11</ele>
        <time>2018-11-12T09:33:36Z</time>
      </trkpt>
      <trkpt lat="44.00607" lon="5.309">
        <ele>707.67</ele>
        <time>2018-11-12T09:33:42Z</time>
      </trkpt>
      <trkpt lat="44.00606" lon="5.309">
        <ele>709.11</ele>
        <time>2018-11-12T09:33:46Z</time>
      </trkpt>
      <trkpt lat="44.00608" lon="5.30902">
        <ele>707.67</ele>
        <time>2018-11-12T09:34:05Z</time>
      </trkpt>
      <trkpt lat="44.00608" lon="5.30903">
        <ele>709.11</ele>
        <time>2018-11-12T09:34:15Z</time>
      </trkpt>
      <trkpt lat="44.00607" lon="5.30901">
        <ele>709.11</ele>
        <time>2018-11-12T09:34:33Z</time>
      </trkpt>
      <trkpt lat="44.00607" lon="5.30898">
        <ele>709.59</ele>
        <time>2018-11-12T09:34:54Z</time>
      </trkpt>
      <trkpt lat="44.00608" lon="5.30899">
        <ele>709.59</ele>
        <time>2018-11-12T09:35:19Z</time>
      </trkpt>
      <trkpt lat="44.00607" lon="5.309">
        <ele>709.59</ele>
        <time>2018-11-12T09:35:42Z</time>
      </trkpt>
      <trkpt lat="44.00606" lon="5.30898">
        <ele>709.59</ele>
        <time>2018-11-12T09:36:06Z</time>
      </trkpt>
      <trkpt lat="44.00605" lon="5.30898">
        <ele>709.59</ele>
        <time>2018-11-12T09:36:37Z</time>
      </trkpt>
      <trkpt lat="44.00606" lon="5.30893">
        <ele>710.07</ele>
        <time>2018-11-12T09:37:02Z</time>
      </trkpt>
      <trkpt lat="44.00608" lon="5.30894">
        <ele>709.59</ele>
        <time>2018-11-12T09:37:16Z</time>
      </trkpt>
      <trkpt lat="44.00603" lon="5.30893">
        <ele>708.63</ele>
        <time>2018-11-12T09:37:30Z</time>
      </trkpt>
      <trkpt lat="44.00591" lon="5.30886">
        <ele>708.15</ele>
        <time>2018-11-12T09:37:46Z</time>
      </trkpt>
      <trkpt lat="44.00581" lon="5.30887">
        <ele>708.15</ele>
        <time>2018-11-12T09:38:00Z</time>
      </trkpt>
      <trkpt lat="44.0057" lon="5.30879">
        <ele>708.15</ele>
        <time>2018-11-12T09:38:13Z</time>
      </trkpt>
      <trkpt lat="44.00559" lon="5.30878">
        <ele>708.63</ele>
        <time>2018-11-12T09:38:27Z</time>
      </trkpt>
      <trkpt lat="44.0055" lon="5.30885">
        <ele>708.63</ele>
        <time>2018-11-12T09:38:41Z</time>
      </trkpt>
      <trkpt lat="44.00549" lon="5.30887">
        <ele>709.59</ele>
        <time>2018-11-12T09:38:43Z</time>
      </trkpt>
      <trkpt lat="44.00545" lon="5.30889">
        <ele>709.59</ele>
        <time>2018-11-12T09:38:48Z</time>
      </trkpt>
      <trkpt lat="44.00534" lon="5.30897">
        <ele>710.07</ele>
        <time>2018-11-12T09:39:02Z</time>
      </trkpt>
      <trkpt lat="44.00531" lon="5.30898">
        <ele>710.07</ele>
        <time>2018-11-12T09:39:05Z</time>
      </trkpt>
      <trkpt lat="44.00514" lon="5.30902">
        <ele>710.55</ele>
        <time>2018-11-12T09:39:22Z</time>
      </trkpt>
      <trkpt lat="44.00499" lon="5.30909">
        <ele>710.55</ele>
        <time>2018-11-12T09:39:38Z</time>
      </trkpt>
      <trkpt lat="44.00486" lon="5.30915">
        <ele>710.07</ele>
        <time>2018-11-12T09:39:51Z</time>
      </trkpt>
      <trkpt lat="44.00477" lon="5.30922">
        <ele>710.07</ele>
        <time>2018-11-12T09:40:00Z</time>
      </trkpt>
      <trkpt lat="44.0046" lon="5.30934">
        <ele>709.59</ele>
        <time>2018-11-12T09:40:18Z</time>
      </trkpt>
      <trkpt lat="44.00457" lon="5.30935">
        <ele>711.03</ele>
        <time>2018-11-12T09:40:21Z</time>
      </trkpt>
      <trkpt lat="44.00451" lon="5.30938">
        <ele>709.59</ele>
        <time>2018-11-12T09:40:27Z</time>
      </trkpt>
      <trkpt lat="44.00433" lon="5.30947">
        <ele>708.15</ele>
        <time>2018-11-12T09:40:45Z</time>
      </trkpt>
      <trkpt lat="44.00421" lon="5.30951">
        <ele>707.19</ele>
        <time>2018-11-12T09:40:56Z</time>
      </trkpt>
      <trkpt lat="44.00419" lon="5.30952">
        <ele>707.19</ele>
        <time>2018-11-12T09:40:58Z</time>
      </trkpt>
      <trkpt lat="44.00402" lon="5.3096">
        <ele>706.23</ele>
        <time>2018-11-12T09:41:14Z</time>
      </trkpt>
      <trkpt lat="44.00385" lon="5.30964">
        <ele>704.3</ele>
        <time>2018-11-12T09:41:30Z</time>
      </trkpt>
      <trkpt lat="44.00368" lon="5.3097">
        <ele>703.82</ele>
        <time>2018-11-12T09:41:45Z</time>
      </trkpt>
      <trkpt lat="44.0036" lon="5.30972">
        <ele>702.38</ele>
        <time>2018-11-12T09:41:53Z</time>
      </trkpt>
      <trkpt lat="44.00356" lon="5.30973">
        <ele>703.82</ele>
        <time>2018-11-12T09:41:56Z</time>
      </trkpt>
      <trkpt lat="44.00341" lon="5.30977">
        <ele>702.38</ele>
        <time>2018-11-12T09:42:11Z</time>
      </trkpt>
      <trkpt lat="44.00328" lon="5.3098">
        <ele>701.9</ele>
        <time>2018-11-12T09:42:24Z</time>
      </trkpt>
      <trkpt lat="44.00303" lon="5.30978">
        <ele>700.46</ele>
        <time>2018-11-12T09:42:46Z</time>
      </trkpt>
      <trkpt lat="44.00279" lon="5.30973">
        <ele>699.98</ele>
        <time>2018-11-12T09:43:08Z</time>
      </trkpt>
      <trkpt lat="44.00261" lon="5.30972">
        <ele>699.98</ele>
        <time>2018-11-12T09:43:25Z</time>
      </trkpt>
      <trkpt lat="44.00258" lon="5.30972">
        <ele>699.5</ele>
        <time>2018-11-12T09:43:27Z</time>
      </trkpt>
      <trkpt lat="44.00239" lon="5.30973">
        <ele>699.02</ele>
        <time>2018-11-12T09:43:46Z</time>
      </trkpt>
      <trkpt lat="44.00237" lon="5.30973">
        <ele>699.02</ele>
        <time>2018-11-12T09:43:48Z</time>
      </trkpt>
      <trkpt lat="44.0022" lon="5.30969">
        <ele>698.53</ele>
        <time>2018-11-12T09:44:01Z</time>
      </trkpt>
      <trkpt lat="44.00219" lon="5.30967">
        <ele>698.53</ele>
        <time>2018-11-12T09:44:03Z</time>
      </trkpt>
      <trkpt lat="44.00196" lon="5.30959">
        <ele>698.53</ele>
        <time>2018-11-12T09:44:23Z</time>
      </trkpt>
      <trkpt lat="44.00187" lon="5.30954">
        <ele>698.05</ele>
        <time>2018-11-12T09:44:38Z</time>
      </trkpt>
      <trkpt lat="44.00161" lon="5.30941">
        <ele>697.09</ele>
        <time>2018-11-12T09:44:59Z</time>
      </trkpt>
      <trkpt lat="44.00141" lon="5.30931">
        <ele>695.17</ele>
        <time>2018-11-12T09:45:19Z</time>
      </trkpt>
      <trkpt lat="44.00137" lon="5.30929">
        <ele>695.17</ele>
        <time>2018-11-12T09:45:23Z</time>
      </trkpt>
      <trkpt lat="44.00115" lon="5.30916">
        <ele>694.69</ele>
        <time>2018-11-12T09:45:42Z</time>
      </trkpt>
      <trkpt lat="44.00096" lon="5.30906">
        <ele>694.21</ele>
        <time>2018-11-12T09:46:00Z</time>
      </trkpt>
      <trkpt lat="44.00073" lon="5.30891">
        <ele>695.17</ele>
        <time>2018-11-12T09:46:21Z</time>
      </trkpt>
      <trkpt lat="44.00066" lon="5.30886">
        <ele>693.73</ele>
        <time>2018-11-12T09:46:28Z</time>
      </trkpt>
      <trkpt lat="44.00049" lon="5.30879">
        <ele>694.21</ele>
        <time>2018-11-12T09:46:44Z</time>
      </trkpt>
      <trkpt lat="44.0004" lon="5.30884">
        <ele>694.21</ele>
        <time>2018-11-12T09:46:55Z</time>
      </trkpt>
      <trkpt lat="44.00036" lon="5.3089">
        <ele>694.21</ele>
        <time>2018-11-12T09:47:00Z</time>
      </trkpt>
      <trkpt lat="44.00023" lon="5.30905">
        <ele>694.69</ele>
        <time>2018-11-12T09:47:15Z</time>
      </trkpt>
      <trkpt lat="44.00009" lon="5.30923">
        <ele>694.69</ele>
        <time>2018-11-12T09:47:32Z</time>
      </trkpt>
      <trkpt lat="43.99997" lon="5.30933">
        <ele>695.65</ele>
        <time>2018-11-12T09:47:44Z</time>
      </trkpt>
      <trkpt lat="43.99982" lon="5.30946">
        <ele>696.13</ele>
        <time>2018-11-12T09:47:58Z</time>
      </trkpt>
      <trkpt lat="43.99966" lon="5.30958">
        <ele>697.09</ele>
        <time>2018-11-12T09:48:15Z</time>
      </trkpt>
      <trkpt lat="43.99951" lon="5.30968">
        <ele>696.61</ele>
        <time>2018-11-12T09:48:31Z</time>
      </trkpt>
      <trkpt lat="43.99935" lon="5.30974">
        <ele>696.61</ele>
        <time>2018-11-12T09:48:46Z</time>
      </trkpt>
      <trkpt lat="43.99917" lon="5.3098">
        <ele>696.61</ele>
        <time>2018-11-12T09:49:02Z</time>
      </trkpt>
      <trkpt lat="43.99897" lon="5.30986">
        <ele>696.61</ele>
        <time>2018-11-12T09:49:20Z</time>
      </trkpt>
      <trkpt lat="43.99881" lon="5.30992">
        <ele>696.61</ele>
        <time>2018-11-12T09:49:37Z</time>
      </trkpt>
      <trkpt lat="43.99879" lon="5.30993">
        <ele>696.61</ele>
        <time>2018-11-12T09:49:39Z</time>
      </trkpt>
      <trkpt lat="43.99877" lon="5.30995">
        <ele>696.61</ele>
        <time>2018-11-12T09:49:41Z</time>
      </trkpt>
      <trkpt lat="43.99868" lon="5.31001">
        <ele>697.57</ele>
        <time>2018-11-12T09:49:49Z</time>
      </trkpt>
      <trkpt lat="43.99856" lon="5.31009">
        <ele>697.57</ele>
        <time>2018-11-12T09:50:02Z</time>
      </trkpt>
      <trkpt lat="43.99847" lon="5.31016">
        <ele>697.57</ele>
        <time>2018-11-12T09:50:11Z</time>
      </trkpt>
      <trkpt lat="43.99844" lon="5.31018">
        <ele>697.57</ele>
        <time>2018-11-12T09:50:15Z</time>
      </trkpt>
      <trkpt lat="43.99842" lon="5.3102">
        <ele>697.57</ele>
        <time>2018-11-12T09:50:17Z</time>
      </trkpt>
      <trkpt lat="43.9983" lon="5.31028">
        <ele>698.05</ele>
        <time>2018-11-12T09:50:29Z</time>
      </trkpt>
      <trkpt lat="43.99817" lon="5.31035">
        <ele>698.05</ele>
        <time>2018-11-12T09:50:42Z</time>
      </trkpt>
      <trkpt lat="43.99807" lon="5.31041">
        <ele>698.53</ele>
        <time>2018-11-12T09:50:53Z</time>
      </trkpt>
      <trkpt lat="43.99801" lon="5.31045">
        <ele>699.5</ele>
        <time>2018-11-12T09:50:59Z</time>
      </trkpt>
      <trkpt lat="43.99789" lon="5.31054">
        <ele>699.02</ele>
        <time>2018-11-12T09:51:11Z</time>
      </trkpt>
      <trkpt lat="43.99778" lon="5.31062">
        <ele>700.46</ele>
        <time>2018-11-12T09:51:24Z</time>
      </trkpt>
      <trkpt lat="43.99761" lon="5.31079">
        <ele>701.42</ele>
        <time>2018-11-12T09:51:43Z</time>
      </trkpt>
      <trkpt lat="43.99746" lon="5.31093">
        <ele>702.86</ele>
        <time>2018-11-12T09:52:00Z</time>
      </trkpt>
      <trkpt lat="43.99735" lon="5.31103">
        <ele>703.82</ele>
        <time>2018-11-12T09:52:15Z</time>
      </trkpt>
      <trkpt lat="43.99727" lon="5.31113">
        <ele>703.82</ele>
        <time>2018-11-12T09:52:32Z</time>
      </trkpt>
      <trkpt lat="43.99726" lon="5.31114">
        <ele>702.86</ele>
        <time>2018-11-12T09:52:41Z</time>
      </trkpt>
      <trkpt lat="43.99721" lon="5.31122">
        <ele>703.82</ele>
        <time>2018-11-12T09:52:56Z</time>
      </trkpt>
      <trkpt lat="43.99713" lon="5.31133">
        <ele>704.78</ele>
        <time>2018-11-12T09:53:09Z</time>
      </trkpt>
      <trkpt lat="43.9971" lon="5.31136">
        <ele>704.78</ele>
        <time>2018-11-12T09:53:25Z</time>
      </trkpt>
      <trkpt lat="43.99711" lon="5.31136">
        <ele>707.19</ele>
        <time>2018-11-12T09:53:44Z</time>
      </trkpt>
      <trkpt lat="43.99711" lon="5.31136">
        <ele>705.26</ele>
        <time>2018-11-12T09:53:46Z</time>
      </trkpt>
      <trkpt lat="43.99703" lon="5.31142">
        <ele>704.78</ele>
        <time>2018-11-12T09:54:01Z</time>
      </trkpt>
      <trkpt lat="43.99701" lon="5.31148">
        <ele>707.19</ele>
        <time>2018-11-12T09:54:08Z</time>
      </trkpt>
      <trkpt lat="43.99698" lon="5.31164">
        <ele>707.19</ele>
        <time>2018-11-12T09:54:23Z</time>
      </trkpt>
      <trkpt lat="43.99694" lon="5.31178">
        <ele>707.67</ele>
        <time>2018-11-12T09:54:35Z</time>
      </trkpt>
      <trkpt lat="43.99688" lon="5.31206">
        <ele>708.63</ele>
        <time>2018-11-12T09:54:54Z</time>
      </trkpt>
      <trkpt lat="43.99682" lon="5.31222">
        <ele>709.59</ele>
        <time>2018-11-12T09:55:07Z</time>
      </trkpt>
      <trkpt lat="43.99673" lon="5.31243">
        <ele>708.63</ele>
        <time>2018-11-12T09:55:25Z</time>
      </trkpt>
      <trkpt lat="43.99665" lon="5.31255">
        <ele>710.07</ele>
        <time>2018-11-12T09:55:37Z</time>
      </trkpt>
      <trkpt lat="43.99649" lon="5.31273">
        <ele>711.03</ele>
        <time>2018-11-12T09:55:56Z</time>
      </trkpt>
      <trkpt lat="43.99631" lon="5.31289">
        <ele>711.51</ele>
        <time>2018-11-12T09:56:15Z</time>
      </trkpt>
      <trkpt lat="43.99621" lon="5.31299">
        <ele>716.32</ele>
        <time>2018-11-12T09:56:27Z</time>
      </trkpt>
      <trkpt lat="43.99619" lon="5.313">
        <ele>712.95</ele>
        <time>2018-11-12T09:56:29Z</time>
      </trkpt>
      <trkpt lat="43.99618" lon="5.31301">
        <ele>712.95</ele>
        <time>2018-11-12T09:56:30Z</time>
      </trkpt>
      <trkpt lat="43.99611" lon="5.31309">
        <ele>714.4</ele>
        <time>2018-11-12T09:56:40Z</time>
      </trkpt>
      <trkpt lat="43.99606" lon="5.31313">
        <ele>712.95</ele>
        <time>2018-11-12T09:56:45Z</time>
      </trkpt>
      <trkpt lat="43.99596" lon="5.31323">
        <ele>714.4</ele>
        <time>2018-11-12T09:56:58Z</time>
      </trkpt>
      <trkpt lat="43.99595" lon="5.31324">
        <ele>714.4</ele>
        <time>2018-11-12T09:56:59Z</time>
      </trkpt>
      <trkpt lat="43.99578" lon="5.3134">
        <ele>714.88</ele>
        <time>2018-11-12T09:57:17Z</time>
      </trkpt>
      <trkpt lat="43.99562" lon="5.31355">
        <ele>714.88</ele>
        <time>2018-11-12T09:57:35Z</time>
      </trkpt>
      <trkpt lat="43.9955" lon="5.3137">
        <ele>716.8</ele>
        <time>2018-11-12T09:57:50Z</time>
      </trkpt>
      <trkpt lat="43.99551" lon="5.31369">
        <ele>715.36</ele>
        <time>2018-11-12T09:58:00Z</time>
      </trkpt>
      <trkpt lat="43.99547" lon="5.31372">
        <ele>716.32</ele>
        <time>2018-11-12T09:58:07Z</time>
      </trkpt>
      <trkpt lat="43.99527" lon="5.31387">
        <ele>716.8</ele>
        <time>2018-11-12T09:58:27Z</time>
      </trkpt>
      <trkpt lat="43.99512" lon="5.314">
        <ele>717.76</ele>
        <time>2018-11-12T09:58:43Z</time>
      </trkpt>
      <trkpt lat="43.99496" lon="5.31415">
        <ele>718.24</ele>
        <time>2018-11-12T09:59:00Z</time>
      </trkpt>
      <trkpt lat="43.99483" lon="5.31429">
        <ele>719.2</ele>
        <time>2018-11-12T09:59:16Z</time>
      </trkpt>
      <trkpt lat="43.99487" lon="5.31437">
        <ele>720.65</ele>
        <time>2018-11-12T09:59:31Z</time>
      </trkpt>
      <trkpt lat="43.99487" lon="5.31436">
        <ele>721.13</ele>
        <time>2018-11-12T09:59:55Z</time>
      </trkpt>
      <trkpt lat="43.99487" lon="5.31435">
        <ele>719.2</ele>
        <time>2018-11-12T10:00:00Z</time>
      </trkpt>
      <trkpt lat="43.99488" lon="5.31442">
        <ele>721.13</ele>
        <time>2018-11-12T10:00:39Z</time>
      </trkpt>
      <trkpt lat="43.99488" lon="5.31442">
        <ele>721.13</ele>
        <time>2018-11-12T10:00:40Z</time>
      </trkpt>
      <trkpt lat="43.99489" lon="5.31436">
        <ele>721.13</ele>
        <time>2018-11-12T10:01:09Z</time>
      </trkpt>
      <trkpt lat="43.99498" lon="5.31435">
        <ele>721.61</ele>
        <time>2018-11-12T10:01:26Z</time>
      </trkpt>
      <trkpt lat="43.99515" lon="5.31432">
        <ele>721.61</ele>
        <time>2018-11-12T10:01:44Z</time>
      </trkpt>
      <trkpt lat="43.99537" lon="5.3143">
        <ele>720.16</ele>
        <time>2018-11-12T10:02:02Z</time>
      </trkpt>
      <trkpt lat="43.99556" lon="5.31427">
        <ele>720.16</ele>
        <time>2018-11-12T10:02:21Z</time>
      </trkpt>
      <trkpt lat="43.99576" lon="5.31426">
        <ele>720.16</ele>
        <time>2018-11-12T10:02:39Z</time>
      </trkpt>
      <trkpt lat="43.99593" lon="5.3143">
        <ele>720.16</ele>
        <time>2018-11-12T10:02:54Z</time>
      </trkpt>
      <trkpt lat="43.99607" lon="5.31434">
        <ele>721.13</ele>
        <time>2018-11-12T10:03:11Z</time>
      </trkpt>
      <trkpt lat="43.99623" lon="5.31436">
        <ele>722.57</ele>
        <time>2018-11-12T10:03:28Z</time>
      </trkpt>
      <trkpt lat="43.99638" lon="5.31441">
        <ele>723.05</ele>
        <time>2018-11-12T10:03:43Z</time>
      </trkpt>
      <trkpt lat="43.99652" lon="5.31443">
        <ele>723.53</ele>
        <time>2018-11-12T10:03:58Z</time>
      </trkpt>
      <trkpt lat="43.99667" lon="5.31446">
        <ele>724.01</ele>
        <time>2018-11-12T10:04:13Z</time>
      </trkpt>
      <trkpt lat="43.9968" lon="5.31451">
        <ele>724.97</ele>
        <time>2018-11-12T10:04:28Z</time>
      </trkpt>
      <trkpt lat="43.99691" lon="5.31458">
        <ele>726.41</ele>
        <time>2018-11-12T10:04:43Z</time>
      </trkpt>
      <trkpt lat="43.99704" lon="5.31468">
        <ele>727.86</ele>
        <time>2018-11-12T10:04:59Z</time>
      </trkpt>
      <trkpt lat="43.99706" lon="5.3148">
        <ele>729.3</ele>
        <time>2018-11-12T10:05:12Z</time>
      </trkpt>
      <trkpt lat="43.99707" lon="5.31494">
        <ele>731.22</ele>
        <time>2018-11-12T10:05:28Z</time>
      </trkpt>
      <trkpt lat="43.99715" lon="5.31502">
        <ele>732.18</ele>
        <time>2018-11-12T10:05:42Z</time>
      </trkpt>
      <trkpt lat="43.99726" lon="5.31513">
        <ele>733.62</ele>
        <time>2018-11-12T10:06:00Z</time>
      </trkpt>
      <trkpt lat="43.99741" lon="5.31524">
        <ele>734.58</ele>
        <time>2018-11-12T10:06:17Z</time>
      </trkpt>
      <trkpt lat="43.99749" lon="5.3153">
        <ele>735.55</ele>
        <time>2018-11-12T10:06:27Z</time>
      </trkpt>
      <trkpt lat="43.99761" lon="5.31541">
        <ele>736.99</ele>
        <time>2018-11-12T10:06:42Z</time>
      </trkpt>
      <trkpt lat="43.99766" lon="5.31544">
        <ele>736.99</ele>
        <time>2018-11-12T10:06:54Z</time>
      </trkpt>
      <trkpt lat="43.99778" lon="5.31554">
        <ele>736.99</ele>
        <time>2018-11-12T10:07:10Z</time>
      </trkpt>
      <trkpt lat="43.9978" lon="5.31556">
        <ele>736.99</ele>
        <time>2018-11-12T10:07:13Z</time>
      </trkpt>
      <trkpt lat="43.99798" lon="5.3157">
        <ele>736.99</ele>
        <time>2018-11-12T10:07:31Z</time>
      </trkpt>
      <trkpt lat="43.99814" lon="5.31583">
        <ele>737.47</ele>
        <time>2018-11-12T10:07:48Z</time>
      </trkpt>
      <trkpt lat="43.99829" lon="5.31595">
        <ele>738.91</ele>
        <time>2018-11-12T10:08:05Z</time>
      </trkpt>
      <trkpt lat="43.99839" lon="5.31604">
        <ele>738.91</ele>
        <time>2018-11-12T10:08:20Z</time>
      </trkpt>
      <trkpt lat="43.99853" lon="5.31617">
        <ele>739.39</ele>
        <time>2018-11-12T10:08:36Z</time>
      </trkpt>
      <trkpt lat="43.99863" lon="5.31629">
        <ele>740.35</ele>
        <time>2018-11-12T10:08:51Z</time>
      </trkpt>
      <trkpt lat="43.99864" lon="5.3163">
        <ele>740.35</ele>
        <time>2018-11-12T10:08:52Z</time>
      </trkpt>
      <trkpt lat="43.99877" lon="5.31646">
        <ele>740.35</ele>
        <time>2018-11-12T10:09:08Z</time>
      </trkpt>
      <trkpt lat="43.99888" lon="5.31663">
        <ele>741.79</ele>
        <time>2018-11-12T10:09:24Z</time>
      </trkpt>
      <trkpt lat="43.99899" lon="5.31683">
        <ele>742.28</ele>
        <time>2018-11-12T10:09:40Z</time>
      </trkpt>
      <trkpt lat="43.99913" lon="5.31699">
        <ele>743.24</ele>
        <time>2018-11-12T10:09:55Z</time>
      </trkpt>
      <trkpt lat="43.99927" lon="5.31718">
        <ele>743.24</ele>
        <time>2018-11-12T10:10:12Z</time>
      </trkpt>
      <trkpt lat="43.9994" lon="5.31736">
        <ele>743.24</ele>
        <time>2018-11-12T10:10:28Z</time>
      </trkpt>
      <trkpt lat="43.99955" lon="5.31754">
        <ele>744.2</ele>
        <time>2018-11-12T10:10:46Z</time>
      </trkpt>
      <trkpt lat="43.99959" lon="5.31758">
        <ele>745.16</ele>
        <time>2018-11-12T10:11:02Z</time>
      </trkpt>
      <trkpt lat="43.99963" lon="5.31771">
        <ele>744.2</ele>
        <time>2018-11-12T10:11:13Z</time>
      </trkpt>
      <trkpt lat="43.99964" lon="5.31774">
        <ele>744.2</ele>
        <time>2018-11-12T10:11:16Z</time>
      </trkpt>
      <trkpt lat="43.99977" lon="5.31796">
        <ele>743.24</ele>
        <time>2018-11-12T10:11:34Z</time>
      </trkpt>
      <trkpt lat="43.99984" lon="5.31813">
        <ele>743.24</ele>
        <time>2018-11-12T10:11:48Z</time>
      </trkpt>
      <trkpt lat="43.99986" lon="5.31818">
        <ele>743.24</ele>
        <time>2018-11-12T10:11:52Z</time>
      </trkpt>
      <trkpt lat="43.99999" lon="5.3184">
        <ele>743.24</ele>
        <time>2018-11-12T10:12:09Z</time>
      </trkpt>
      <trkpt lat="44.0001" lon="5.31857">
        <ele>742.76</ele>
        <time>2018-11-12T10:12:25Z</time>
      </trkpt>
      <trkpt lat="44.00024" lon="5.31875">
        <ele>741.79</ele>
        <time>2018-11-12T10:12:42Z</time>
      </trkpt>
      <trkpt lat="44.00035" lon="5.31892">
        <ele>739.87</ele>
        <time>2018-11-12T10:12:58Z</time>
      </trkpt>
      <trkpt lat="44.0004" lon="5.31912">
        <ele>739.87</ele>
        <time>2018-11-12T10:13:11Z</time>
      </trkpt>
      <trkpt lat="44.00041" lon="5.31923">
        <ele>738.91</ele>
        <time>2018-11-12T10:13:18Z</time>
      </trkpt>
      <trkpt lat="44.00038" lon="5.31934">
        <ele>738.91</ele>
        <time>2018-11-12T10:13:25Z</time>
      </trkpt>
      <trkpt lat="44.0004" lon="5.3196">
        <ele>738.43</ele>
        <time>2018-11-12T10:13:42Z</time>
      </trkpt>
      <trkpt lat="44.00039" lon="5.31981">
        <ele>738.43</ele>
        <time>2018-11-12T10:13:56Z</time>
      </trkpt>
      <trkpt lat="44.00039" lon="5.32">
        <ele>737.47</ele>
        <time>2018-11-12T10:14:11Z</time>
      </trkpt>
      <trkpt lat="44.0004" lon="5.32019">
        <ele>736.03</ele>
        <time>2018-11-12T10:14:27Z</time>
      </trkpt>
      <trkpt lat="44.00042" lon="5.3204">
        <ele>734.58</ele>
        <time>2018-11-12T10:14:43Z</time>
      </trkpt>
      <trkpt lat="44.00042" lon="5.32067">
        <ele>733.14</ele>
        <time>2018-11-12T10:15:01Z</time>
      </trkpt>
      <trkpt lat="44.00037" lon="5.32089">
        <ele>731.7</ele>
        <time>2018-11-12T10:15:17Z</time>
      </trkpt>
      <trkpt lat="44.00033" lon="5.32111">
        <ele>730.26</ele>
        <time>2018-11-12T10:15:32Z</time>
      </trkpt>
      <trkpt lat="44.00029" lon="5.32132">
        <ele>728.82</ele>
        <time>2018-11-12T10:15:48Z</time>
      </trkpt>
      <trkpt lat="44.00027" lon="5.32152">
        <ele>726.89</ele>
        <time>2018-11-12T10:16:04Z</time>
      </trkpt>
      <trkpt lat="44.00027" lon="5.32174">
        <ele>725.93</ele>
        <time>2018-11-12T10:16:20Z</time>
      </trkpt>
      <trkpt lat="44.00027" lon="5.32196">
        <ele>723.05</ele>
        <time>2018-11-12T10:16:36Z</time>
      </trkpt>
      <trkpt lat="44.00031" lon="5.32215">
        <ele>722.57</ele>
        <time>2018-11-12T10:16:52Z</time>
      </trkpt>
      <trkpt lat="44.00034" lon="5.32237">
        <ele>721.13</ele>
        <time>2018-11-12T10:17:08Z</time>
      </trkpt>
      <trkpt lat="44.00038" lon="5.32256">
        <ele>718.72</ele>
        <time>2018-11-12T10:17:24Z</time>
      </trkpt>
      <trkpt lat="44.00041" lon="5.32267">
        <ele>718.24</ele>
        <time>2018-11-12T10:17:37Z</time>
      </trkpt>
      <trkpt lat="44.0004" lon="5.32268">
        <ele>718.24</ele>
        <time>2018-11-12T10:18:02Z</time>
      </trkpt>
      <trkpt lat="44.00042" lon="5.32266">
        <ele>718.24</ele>
        <time>2018-11-12T10:18:27Z</time>
      </trkpt>
      <trkpt lat="44.00042" lon="5.32266">
        <ele>718.24</ele>
        <time>2018-11-12T10:18:55Z</time>
      </trkpt>
      <trkpt lat="44.00043" lon="5.32266">
        <ele>717.76</ele>
        <time>2018-11-12T10:19:24Z</time>
      </trkpt>
      <trkpt lat="44.00043" lon="5.32267">
        <ele>717.76</ele>
        <time>2018-11-12T10:19:49Z</time>
      </trkpt>
      <trkpt lat="44.00043" lon="5.32267">
        <ele>717.76</ele>
        <time>2018-11-12T10:20:08Z</time>
      </trkpt>
      <trkpt lat="44.00043" lon="5.32267">
        <ele>719.2</ele>
        <time>2018-11-12T10:20:15Z</time>
      </trkpt>
      <trkpt lat="44.00043" lon="5.32268">
        <ele>717.76</ele>
        <time>2018-11-12T10:20:21Z</time>
      </trkpt>
      <trkpt lat="44.00047" lon="5.32286">
        <ele>717.28</ele>
        <time>2018-11-12T10:20:38Z</time>
      </trkpt>
      <trkpt lat="44.00049" lon="5.32299">
        <ele>715.84</ele>
        <time>2018-11-12T10:20:52Z</time>
      </trkpt>
      <trkpt lat="44.00048" lon="5.32321">
        <ele>714.4</ele>
        <time>2018-11-12T10:21:09Z</time>
      </trkpt>
      <trkpt lat="44.00047" lon="5.32338">
        <ele>712.95</ele>
        <time>2018-11-12T10:21:25Z</time>
      </trkpt>
      <trkpt lat="44.00047" lon="5.32359">
        <ele>711.51</ele>
        <time>2018-11-12T10:21:41Z</time>
      </trkpt>
      <trkpt lat="44.0005" lon="5.3237">
        <ele>711.03</ele>
        <time>2018-11-12T10:21:49Z</time>
      </trkpt>
      <trkpt lat="44.00054" lon="5.32387">
        <ele>708.63</ele>
        <time>2018-11-12T10:22:03Z</time>
      </trkpt>
      <trkpt lat="44.00054" lon="5.32404">
        <ele>707.67</ele>
        <time>2018-11-12T10:22:17Z</time>
      </trkpt>
      <trkpt lat="44.00044" lon="5.3242">
        <ele>705.75</ele>
        <time>2018-11-12T10:22:33Z</time>
      </trkpt>
      <trkpt lat="44.00032" lon="5.32437">
        <ele>704.3</ele>
        <time>2018-11-12T10:22:50Z</time>
      </trkpt>
      <trkpt lat="44.00023" lon="5.32454">
        <ele>702.86</ele>
        <time>2018-11-12T10:23:05Z</time>
      </trkpt>
      <trkpt lat="44.00032" lon="5.32462">
        <ele>700.94</ele>
        <time>2018-11-12T10:23:19Z</time>
      </trkpt>
      <trkpt lat="44.00047" lon="5.32472">
        <ele>699.98</ele>
        <time>2018-11-12T10:23:37Z</time>
      </trkpt>
      <trkpt lat="44.00061" lon="5.32478">
        <ele>698.53</ele>
        <time>2018-11-12T10:23:53Z</time>
      </trkpt>
      <trkpt lat="44.00063" lon="5.32491">
        <ele>696.61</ele>
        <time>2018-11-12T10:24:09Z</time>
      </trkpt>
      <trkpt lat="44.00049" lon="5.32505">
        <ele>695.65</ele>
        <time>2018-11-12T10:24:27Z</time>
      </trkpt>
      <trkpt lat="44.00048" lon="5.32506">
        <ele>695.65</ele>
        <time>2018-11-12T10:24:28Z</time>
      </trkpt>
      <trkpt lat="44.00032" lon="5.3252">
        <ele>695.65</ele>
        <time>2018-11-12T10:24:45Z</time>
      </trkpt>
      <trkpt lat="44.0002" lon="5.32539">
        <ele>695.65</ele>
        <time>2018-11-12T10:25:01Z</time>
      </trkpt>
      <trkpt lat="44.00019" lon="5.3254">
        <ele>695.17</ele>
        <time>2018-11-12T10:25:02Z</time>
      </trkpt>
      <trkpt lat="44.00009" lon="5.32562">
        <ele>695.17</ele>
        <time>2018-11-12T10:25:20Z</time>
      </trkpt>
      <trkpt lat="43.99999" lon="5.32582">
        <ele>695.17</ele>
        <time>2018-11-12T10:25:37Z</time>
      </trkpt>
      <trkpt lat="43.99992" lon="5.32602">
        <ele>694.69</ele>
        <time>2018-11-12T10:25:53Z</time>
      </trkpt>
      <trkpt lat="43.99989" lon="5.32624">
        <ele>693.25</ele>
        <time>2018-11-12T10:26:10Z</time>
      </trkpt>
      <trkpt lat="43.99991" lon="5.32642">
        <ele>690.36</ele>
        <time>2018-11-12T10:26:27Z</time>
      </trkpt>
      <trkpt lat="43.99994" lon="5.32646">
        <ele>691.81</ele>
        <time>2018-11-12T10:26:32Z</time>
      </trkpt>
      <trkpt lat="43.99996" lon="5.32651">
        <ele>690.36</ele>
        <time>2018-11-12T10:26:37Z</time>
      </trkpt>
      <trkpt lat="43.99999" lon="5.32655">
        <ele>689.88</ele>
        <time>2018-11-12T10:26:55Z</time>
      </trkpt>
      <trkpt lat="43.99998" lon="5.32655">
        <ele>691.33</ele>
        <time>2018-11-12T10:27:00Z</time>
      </trkpt>
      <trkpt lat="43.99998" lon="5.32656">
        <ele>691.33</ele>
        <time>2018-11-12T10:27:17Z</time>
      </trkpt>
      <trkpt lat="44.00004" lon="5.32659">
        <ele>691.33</ele>
        <time>2018-11-12T10:27:30Z</time>
      </trkpt>
      <trkpt lat="44.00011" lon="5.32663">
        <ele>691.33</ele>
        <time>2018-11-12T10:27:44Z</time>
      </trkpt>
      <trkpt lat="44" lon="5.32658">
        <ele>691.33</ele>
        <time>2018-11-12T10:27:59Z</time>
      </trkpt>
      <trkpt lat="43.99986" lon="5.3266">
        <ele>691.33</ele>
        <time>2018-11-12T10:28:14Z</time>
      </trkpt>
      <trkpt lat="43.99975" lon="5.32659">
        <ele>691.81</ele>
        <time>2018-11-12T10:28:29Z</time>
      </trkpt>
      <trkpt lat="43.99965" lon="5.32661">
        <ele>694.69</ele>
        <time>2018-11-12T10:28:42Z</time>
      </trkpt>
      <trkpt lat="43.99958" lon="5.32675">
        <ele>694.69</ele>
        <time>2018-11-12T10:28:56Z</time>
      </trkpt>
      <trkpt lat="43.99955" lon="5.32686">
        <ele>696.13</ele>
        <time>2018-11-12T10:29:06Z</time>
      </trkpt>
      <trkpt lat="43.99952" lon="5.32699">
        <ele>696.13</ele>
        <time>2018-11-12T10:29:16Z</time>
      </trkpt>
      <trkpt lat="43.99951" lon="5.32718">
        <ele>694.69</ele>
        <time>2018-11-12T10:29:31Z</time>
      </trkpt>
      <trkpt lat="43.99947" lon="5.32732">
        <ele>695.65</ele>
        <time>2018-11-12T10:29:44Z</time>
      </trkpt>
      <trkpt lat="43.99943" lon="5.32753">
        <ele>696.61</ele>
        <time>2018-11-12T10:29:59Z</time>
      </trkpt>
      <trkpt lat="43.99943" lon="5.32768">
        <ele>698.05</ele>
        <time>2018-11-12T10:30:17Z</time>
      </trkpt>
      <trkpt lat="43.99943" lon="5.3277">
        <ele>697.09</ele>
        <time>2018-11-12T10:30:37Z</time>
      </trkpt>
      <trkpt lat="43.99942" lon="5.32771">
        <ele>698.53</ele>
        <time>2018-11-12T10:31:04Z</time>
      </trkpt>
      <trkpt lat="43.99942" lon="5.3277">
        <ele>697.09</ele>
        <time>2018-11-12T10:31:16Z</time>
      </trkpt>
      <trkpt lat="43.99942" lon="5.32769">
        <ele>697.57</ele>
        <time>2018-11-12T10:31:44Z</time>
      </trkpt>
      <trkpt lat="43.99941" lon="5.32769">
        <ele>697.57</ele>
        <time>2018-11-12T10:32:14Z</time>
      </trkpt>
      <trkpt lat="43.99941" lon="5.32769">
        <ele>697.57</ele>
        <time>2018-11-12T10:32:40Z</time>
      </trkpt>
      <trkpt lat="43.99942" lon="5.3277">
        <ele>697.57</ele>
        <time>2018-11-12T10:33:05Z</time>
      </trkpt>
      <trkpt lat="43.99942" lon="5.32771">
        <ele>697.57</ele>
        <time>2018-11-12T10:33:32Z</time>
      </trkpt>
      <trkpt lat="43.99943" lon="5.32777">
        <ele>699.02</ele>
        <time>2018-11-12T10:33:54Z</time>
      </trkpt>
      <trkpt lat="43.99941" lon="5.32794">
        <ele>699.98</ele>
        <time>2018-11-12T10:34:14Z</time>
      </trkpt>
      <trkpt lat="43.99937" lon="5.32807">
        <ele>700.94</ele>
        <time>2018-11-12T10:34:29Z</time>
      </trkpt>
      <trkpt lat="43.99931" lon="5.32821">
        <ele>701.42</ele>
        <time>2018-11-12T10:34:44Z</time>
      </trkpt>
      <trkpt lat="43.99927" lon="5.32836">
        <ele>702.38</ele>
        <time>2018-11-12T10:34:59Z</time>
      </trkpt>
      <trkpt lat="43.99923" lon="5.32851">
        <ele>703.34</ele>
        <time>2018-11-12T10:35:13Z</time>
      </trkpt>
      <trkpt lat="43.99918" lon="5.32871">
        <ele>703.82</ele>
        <time>2018-11-12T10:35:29Z</time>
      </trkpt>
      <trkpt lat="43.99912" lon="5.3289">
        <ele>704.78</ele>
        <time>2018-11-12T10:35:46Z</time>
      </trkpt>
      <trkpt lat="43.99907" lon="5.32904">
        <ele>705.26</ele>
        <time>2018-11-12T10:36:00Z</time>
      </trkpt>
      <trkpt lat="43.99903" lon="5.32924">
        <ele>705.75</ele>
        <time>2018-11-12T10:36:16Z</time>
      </trkpt>
      <trkpt lat="43.99901" lon="5.32944">
        <ele>706.23</ele>
        <time>2018-11-12T10:36:31Z</time>
      </trkpt>
      <trkpt lat="43.99898" lon="5.32957">
        <ele>705.26</ele>
        <time>2018-11-12T10:36:43Z</time>
      </trkpt>
      <trkpt lat="43.99892" lon="5.32977">
        <ele>705.26</ele>
        <time>2018-11-12T10:36:59Z</time>
      </trkpt>
      <trkpt lat="43.99889" lon="5.32992">
        <ele>706.71</ele>
        <time>2018-11-12T10:37:10Z</time>
      </trkpt>
      <trkpt lat="43.99885" lon="5.33011">
        <ele>706.71</ele>
        <time>2018-11-12T10:37:24Z</time>
      </trkpt>
      <trkpt lat="43.99879" lon="5.33031">
        <ele>706.71</ele>
        <time>2018-11-12T10:37:40Z</time>
      </trkpt>
      <trkpt lat="43.99871" lon="5.33049">
        <ele>706.71</ele>
        <time>2018-11-12T10:37:56Z</time>
      </trkpt>
      <trkpt lat="43.99857" lon="5.33068">
        <ele>706.71</ele>
        <time>2018-11-12T10:38:14Z</time>
      </trkpt>
      <trkpt lat="43.99851" lon="5.33076">
        <ele>707.19</ele>
        <time>2018-11-12T10:38:23Z</time>
      </trkpt>
      <trkpt lat="43.99841" lon="5.33093">
        <ele>707.67</ele>
        <time>2018-11-12T10:38:39Z</time>
      </trkpt>
      <trkpt lat="43.99835" lon="5.33107">
        <ele>708.15</ele>
        <time>2018-11-12T10:38:53Z</time>
      </trkpt>
      <trkpt lat="43.99828" lon="5.33122">
        <ele>707.67</ele>
        <time>2018-11-12T10:39:06Z</time>
      </trkpt>
      <trkpt lat="43.99824" lon="5.33132">
        <ele>709.11</ele>
        <time>2018-11-12T10:39:13Z</time>
      </trkpt>
      <trkpt lat="43.9982" lon="5.33148">
        <ele>709.11</ele>
        <time>2018-11-12T10:39:26Z</time>
      </trkpt>
      <trkpt lat="43.99817" lon="5.33163">
        <ele>709.11</ele>
        <time>2018-11-12T10:39:39Z</time>
      </trkpt>
      <trkpt lat="43.99816" lon="5.3318">
        <ele>709.59</ele>
        <time>2018-11-12T10:39:52Z</time>
      </trkpt>
      <trkpt lat="43.99817" lon="5.33203">
        <ele>709.11</ele>
        <time>2018-11-12T10:40:08Z</time>
      </trkpt>
      <trkpt lat="43.99815" lon="5.33228">
        <ele>709.59</ele>
        <time>2018-11-12T10:40:24Z</time>
      </trkpt>
      <trkpt lat="43.99812" lon="5.33255">
        <ele>710.07</ele>
        <time>2018-11-12T10:40:44Z</time>
      </trkpt>
      <trkpt lat="43.99809" lon="5.33271">
        <ele>710.07</ele>
        <time>2018-11-12T10:40:57Z</time>
      </trkpt>
      <trkpt lat="43.99805" lon="5.33296">
        <ele>710.07</ele>
        <time>2018-11-12T10:41:14Z</time>
      </trkpt>
      <trkpt lat="43.99804" lon="5.33312">
        <ele>710.07</ele>
        <time>2018-11-12T10:41:25Z</time>
      </trkpt>
      <trkpt lat="43.99803" lon="5.33316">
        <ele>711.03</ele>
        <time>2018-11-12T10:41:28Z</time>
      </trkpt>
      <trkpt lat="43.99802" lon="5.33319">
        <ele>710.07</ele>
        <time>2018-11-12T10:41:30Z</time>
      </trkpt>
      <trkpt lat="43.99799" lon="5.33338">
        <ele>711.51</ele>
        <time>2018-11-12T10:41:45Z</time>
      </trkpt>
      <trkpt lat="43.99795" lon="5.3335">
        <ele>710.07</ele>
        <time>2018-11-12T10:41:55Z</time>
      </trkpt>
      <trkpt lat="43.99788" lon="5.33371">
        <ele>710.07</ele>
        <time>2018-11-12T10:42:10Z</time>
      </trkpt>
      <trkpt lat="43.99783" lon="5.33385">
        <ele>709.59</ele>
        <time>2018-11-12T10:42:24Z</time>
      </trkpt>
      <trkpt lat="43.99783" lon="5.33385">
        <ele>709.59</ele>
        <time>2018-11-12T10:42:26Z</time>
      </trkpt>
      <trkpt lat="43.99773" lon="5.33411">
        <ele>709.59</ele>
        <time>2018-11-12T10:42:44Z</time>
      </trkpt>
      <trkpt lat="43.99769" lon="5.33421">
        <ele>710.55</ele>
        <time>2018-11-12T10:42:52Z</time>
      </trkpt>
      <trkpt lat="43.99765" lon="5.33437">
        <ele>710.55</ele>
        <time>2018-11-12T10:43:06Z</time>
      </trkpt>
      <trkpt lat="43.99763" lon="5.33452">
        <ele>711.03</ele>
        <time>2018-11-12T10:43:17Z</time>
      </trkpt>
      <trkpt lat="43.99757" lon="5.33477">
        <ele>708.15</ele>
        <time>2018-11-12T10:43:33Z</time>
      </trkpt>
      <trkpt lat="43.99753" lon="5.33497">
        <ele>708.15</ele>
        <time>2018-11-12T10:43:47Z</time>
      </trkpt>
      <trkpt lat="43.99751" lon="5.33506">
        <ele>709.59</ele>
        <time>2018-11-12T10:43:54Z</time>
      </trkpt>
      <trkpt lat="43.9975" lon="5.33507">
        <ele>708.63</ele>
        <time>2018-11-12T10:44:06Z</time>
      </trkpt>
      <trkpt lat="43.99749" lon="5.33509">
        <ele>710.07</ele>
        <time>2018-11-12T10:44:10Z</time>
      </trkpt>
      <trkpt lat="43.99747" lon="5.33515">
        <ele>708.15</ele>
        <time>2018-11-12T10:44:20Z</time>
      </trkpt>
      <trkpt lat="43.99733" lon="5.33523">
        <ele>707.19</ele>
        <time>2018-11-12T10:44:39Z</time>
      </trkpt>
      <trkpt lat="43.9973" lon="5.33523">
        <ele>706.71</ele>
        <time>2018-11-12T10:44:42Z</time>
      </trkpt>
      <trkpt lat="43.99715" lon="5.33516">
        <ele>704.3</ele>
        <time>2018-11-12T10:44:57Z</time>
      </trkpt>
      <trkpt lat="43.997" lon="5.33505">
        <ele>704.3</ele>
        <time>2018-11-12T10:45:14Z</time>
      </trkpt>
      <trkpt lat="43.99683" lon="5.33494">
        <ele>702.38</ele>
        <time>2018-11-12T10:45:33Z</time>
      </trkpt>
      <trkpt lat="43.9968" lon="5.33492">
        <ele>701.9</ele>
        <time>2018-11-12T10:45:36Z</time>
      </trkpt>
      <trkpt lat="43.99663" lon="5.33481">
        <ele>700.94</ele>
        <time>2018-11-12T10:45:53Z</time>
      </trkpt>
      <trkpt lat="43.99651" lon="5.33476">
        <ele>699.98</ele>
        <time>2018-11-12T10:46:09Z</time>
      </trkpt>
      <trkpt lat="43.99651" lon="5.33499">
        <ele>698.05</ele>
        <time>2018-11-12T10:46:29Z</time>
      </trkpt>
      <trkpt lat="43.99654" lon="5.33517">
        <ele>696.13</ele>
        <time>2018-11-12T10:46:46Z</time>
      </trkpt>
      <trkpt lat="43.99661" lon="5.33544">
        <ele>693.73</ele>
        <time>2018-11-12T10:47:05Z</time>
      </trkpt>
      <trkpt lat="43.99664" lon="5.3355">
        <ele>694.69</ele>
        <time>2018-11-12T10:47:10Z</time>
      </trkpt>
      <trkpt lat="43.99674" lon="5.3357">
        <ele>692.29</ele>
        <time>2018-11-12T10:47:29Z</time>
      </trkpt>
      <trkpt lat="43.99683" lon="5.33587">
        <ele>690.84</ele>
        <time>2018-11-12T10:47:45Z</time>
      </trkpt>
      <trkpt lat="43.99692" lon="5.33607">
        <ele>688.92</ele>
        <time>2018-11-12T10:48:01Z</time>
      </trkpt>
      <trkpt lat="43.99694" lon="5.33613">
        <ele>687.96</ele>
        <time>2018-11-12T10:48:05Z</time>
      </trkpt>
      <trkpt lat="43.99704" lon="5.33633">
        <ele>687</ele>
        <time>2018-11-12T10:48:23Z</time>
      </trkpt>
      <trkpt lat="43.99707" lon="5.33638">
        <ele>687</ele>
        <time>2018-11-12T10:48:28Z</time>
      </trkpt>
      <trkpt lat="43.9972" lon="5.33661">
        <ele>686.04</ele>
        <time>2018-11-12T10:48:48Z</time>
      </trkpt>
      <trkpt lat="43.99726" lon="5.33682">
        <ele>684.6</ele>
        <time>2018-11-12T10:49:05Z</time>
      </trkpt>
      <trkpt lat="43.9973" lon="5.33705">
        <ele>684.12</ele>
        <time>2018-11-12T10:49:22Z</time>
      </trkpt>
      <trkpt lat="43.99736" lon="5.3373">
        <ele>682.67</ele>
        <time>2018-11-12T10:49:40Z</time>
      </trkpt>
      <trkpt lat="43.9974" lon="5.33753">
        <ele>682.67</ele>
        <time>2018-11-12T10:50:00Z</time>
      </trkpt>
      <trkpt lat="43.99743" lon="5.33762">
        <ele>684.12</ele>
        <time>2018-11-12T10:50:06Z</time>
      </trkpt>
      <trkpt lat="43.99751" lon="5.33781">
        <ele>682.67</ele>
        <time>2018-11-12T10:50:23Z</time>
      </trkpt>
      <trkpt lat="43.99758" lon="5.33798">
        <ele>682.67</ele>
        <time>2018-11-12T10:50:40Z</time>
      </trkpt>
      <trkpt lat="43.99769" lon="5.33829">
        <ele>684.6</ele>
        <time>2018-11-12T10:51:00Z</time>
      </trkpt>
      <trkpt lat="43.9977" lon="5.3383">
        <ele>684.6</ele>
        <time>2018-11-12T10:51:01Z</time>
      </trkpt>
      <trkpt lat="43.99779" lon="5.33858">
        <ele>685.56</ele>
        <time>2018-11-12T10:51:21Z</time>
      </trkpt>
      <trkpt lat="43.99786" lon="5.33878">
        <ele>686.04</ele>
        <time>2018-11-12T10:51:38Z</time>
      </trkpt>
      <trkpt lat="43.99795" lon="5.33901">
        <ele>687</ele>
        <time>2018-11-12T10:51:58Z</time>
      </trkpt>
      <trkpt lat="43.99807" lon="5.33928">
        <ele>688.44</ele>
        <time>2018-11-12T10:52:22Z</time>
      </trkpt>
      <trkpt lat="43.99814" lon="5.33948">
        <ele>689.88</ele>
        <time>2018-11-12T10:52:41Z</time>
      </trkpt>
      <trkpt lat="43.9982" lon="5.33963">
        <ele>692.29</ele>
        <time>2018-11-12T10:52:57Z</time>
      </trkpt>
      <trkpt lat="43.99832" lon="5.33995">
        <ele>693.25</ele>
        <time>2018-11-12T10:53:19Z</time>
      </trkpt>
      <trkpt lat="43.99837" lon="5.34015">
        <ele>694.21</ele>
        <time>2018-11-12T10:53:38Z</time>
      </trkpt>
      <trkpt lat="43.99836" lon="5.3403">
        <ele>694.21</ele>
        <time>2018-11-12T10:53:48Z</time>
      </trkpt>
      <trkpt lat="43.9983" lon="5.34055">
        <ele>692.29</ele>
        <time>2018-11-12T10:54:06Z</time>
      </trkpt>
      <trkpt lat="43.99824" lon="5.3408">
        <ele>691.33</ele>
        <time>2018-11-12T10:54:25Z</time>
      </trkpt>
      <trkpt lat="43.99819" lon="5.34104">
        <ele>690.84</ele>
        <time>2018-11-12T10:54:41Z</time>
      </trkpt>
      <trkpt lat="43.99813" lon="5.34127">
        <ele>689.88</ele>
        <time>2018-11-12T10:54:57Z</time>
      </trkpt>
      <trkpt lat="43.99808" lon="5.34151">
        <ele>688.44</ele>
        <time>2018-11-12T10:55:14Z</time>
      </trkpt>
      <trkpt lat="43.99804" lon="5.34161">
        <ele>688.44</ele>
        <time>2018-11-12T10:55:31Z</time>
      </trkpt>
      <trkpt lat="43.99795" lon="5.34164">
        <ele>689.88</ele>
        <time>2018-11-12T10:55:46Z</time>
      </trkpt>
      <trkpt lat="43.9978" lon="5.34171">
        <ele>690.84</ele>
        <time>2018-11-12T10:56:05Z</time>
      </trkpt>
      <trkpt lat="43.9977" lon="5.34179">
        <ele>691.33</ele>
        <time>2018-11-12T10:56:19Z</time>
      </trkpt>
      <trkpt lat="43.99757" lon="5.34186">
        <ele>692.77</ele>
        <time>2018-11-12T10:56:36Z</time>
      </trkpt>
      <trkpt lat="43.99748" lon="5.34191">
        <ele>692.77</ele>
        <time>2018-11-12T10:56:54Z</time>
      </trkpt>
      <trkpt lat="43.99746" lon="5.34193">
        <ele>694.21</ele>
        <time>2018-11-12T10:57:17Z</time>
      </trkpt>
      <trkpt lat="43.99742" lon="5.34195">
        <ele>694.21</ele>
        <time>2018-11-12T10:57:31Z</time>
      </trkpt>
      <trkpt lat="43.99745" lon="5.34195">
        <ele>693.73</ele>
        <time>2018-11-12T10:57:41Z</time>
      </trkpt>
      <trkpt lat="43.99743" lon="5.34196">
        <ele>693.73</ele>
        <time>2018-11-12T10:57:56Z</time>
      </trkpt>
      <trkpt lat="43.99738" lon="5.34197">
        <ele>693.73</ele>
        <time>2018-11-12T10:58:12Z</time>
      </trkpt>
      <trkpt lat="43.99733" lon="5.34199">
        <ele>693.73</ele>
        <time>2018-11-12T10:58:28Z</time>
      </trkpt>
      <trkpt lat="43.99732" lon="5.34205">
        <ele>693.73</ele>
        <time>2018-11-12T10:58:44Z</time>
      </trkpt>
      <trkpt lat="43.99733" lon="5.34206">
        <ele>695.65</ele>
        <time>2018-11-12T10:59:06Z</time>
      </trkpt>
      <trkpt lat="43.99731" lon="5.34212">
        <ele>696.13</ele>
        <time>2018-11-12T10:59:31Z</time>
      </trkpt>
      <trkpt lat="43.99734" lon="5.34206">
        <ele>696.13</ele>
        <time>2018-11-12T10:59:54Z</time>
      </trkpt>
      <trkpt lat="43.99733" lon="5.34204">
        <ele>696.13</ele>
        <time>2018-11-12T11:00:18Z</time>
      </trkpt>
      <trkpt lat="43.99734" lon="5.34206">
        <ele>696.13</ele>
        <time>2018-11-12T11:00:44Z</time>
      </trkpt>
      <trkpt lat="43.9973" lon="5.34206">
        <ele>695.17</ele>
        <time>2018-11-12T11:01:07Z</time>
      </trkpt>
      <trkpt lat="43.99732" lon="5.34206">
        <ele>696.13</ele>
        <time>2018-11-12T11:01:30Z</time>
      </trkpt>
      <trkpt lat="43.9973" lon="5.34205">
        <ele>698.53</ele>
        <time>2018-11-12T11:01:53Z</time>
      </trkpt>
      <trkpt lat="43.99731" lon="5.34205">
        <ele>697.09</ele>
        <time>2018-11-12T11:01:59Z</time>
      </trkpt>
      <trkpt lat="43.99731" lon="5.34205">
        <ele>696.13</ele>
        <time>2018-11-12T11:02:13Z</time>
      </trkpt>
      <trkpt lat="43.99729" lon="5.34204">
        <ele>695.65</ele>
        <time>2018-11-12T11:02:42Z</time>
      </trkpt>
      <trkpt lat="43.99728" lon="5.34202">
        <ele>695.65</ele>
        <time>2018-11-12T11:03:08Z</time>
      </trkpt>
      <trkpt lat="43.99732" lon="5.342">
        <ele>695.65</ele>
        <time>2018-11-12T11:03:30Z</time>
      </trkpt>
      <trkpt lat="43.99731" lon="5.34198">
        <ele>695.65</ele>
        <time>2018-11-12T11:03:59Z</time>
      </trkpt>
      <trkpt lat="43.99729" lon="5.34197">
        <ele>697.09</ele>
        <time>2018-11-12T11:04:12Z</time>
      </trkpt>
      <trkpt lat="43.99728" lon="5.34196">
        <ele>697.57</ele>
        <time>2018-11-12T11:04:38Z</time>
      </trkpt>
      <trkpt lat="43.99728" lon="5.34198">
        <ele>696.61</ele>
        <time>2018-11-12T11:05:03Z</time>
      </trkpt>
      <trkpt lat="43.99729" lon="5.34199">
        <ele>697.09</ele>
        <time>2018-11-12T11:05:32Z</time>
      </trkpt>
      <trkpt lat="43.99728" lon="5.34197">
        <ele>698.53</ele>
        <time>2018-11-12T11:05:51Z</time>
      </trkpt>
      <trkpt lat="43.99727" lon="5.342">
        <ele>699.5</ele>
        <time>2018-11-12T11:06:26Z</time>
      </trkpt>
      <trkpt lat="43.99726" lon="5.34199">
        <ele>699.5</ele>
        <time>2018-11-12T11:06:56Z</time>
      </trkpt>
      <trkpt lat="43.9973" lon="5.34195">
        <ele>700.46</ele>
        <time>2018-11-12T11:07:28Z</time>
      </trkpt>
      <trkpt lat="43.9973" lon="5.34194">
        <ele>699.02</ele>
        <time>2018-11-12T11:07:54Z</time>
      </trkpt>
      <trkpt lat="43.99731" lon="5.34194">
        <ele>699.02</ele>
        <time>2018-11-12T11:08:21Z</time>
      </trkpt>
      <trkpt lat="43.99728" lon="5.34193">
        <ele>699.98</ele>
        <time>2018-11-12T11:08:39Z</time>
      </trkpt>
      <trkpt lat="43.99728" lon="5.34193">
        <ele>700.46</ele>
        <time>2018-11-12T11:09:09Z</time>
      </trkpt>
      <trkpt lat="43.99728" lon="5.34188">
        <ele>700.94</ele>
        <time>2018-11-12T11:09:39Z</time>
      </trkpt>
      <trkpt lat="43.99728" lon="5.34195">
        <ele>699.98</ele>
        <time>2018-11-12T11:10:05Z</time>
      </trkpt>
      <trkpt lat="43.99727" lon="5.34199">
        <ele>699.98</ele>
        <time>2018-11-12T11:10:32Z</time>
      </trkpt>
      <trkpt lat="43.9973" lon="5.34203">
        <ele>699.5</ele>
        <time>2018-11-12T11:10:59Z</time>
      </trkpt>
      <trkpt lat="43.99727" lon="5.34201">
        <ele>699.5</ele>
        <time>2018-11-12T11:11:25Z</time>
      </trkpt>
      <trkpt lat="43.99728" lon="5.34203">
        <ele>698.05</ele>
        <time>2018-11-12T11:11:48Z</time>
      </trkpt>
      <trkpt lat="43.99725" lon="5.34203">
        <ele>699.5</ele>
        <time>2018-11-12T11:11:59Z</time>
      </trkpt>
      <trkpt lat="43.99726" lon="5.34203">
        <ele>701.42</ele>
        <time>2018-11-12T11:12:27Z</time>
      </trkpt>
      <trkpt lat="43.99726" lon="5.34201">
        <ele>699.5</ele>
        <time>2018-11-12T11:13:00Z</time>
      </trkpt>
      <trkpt lat="43.99729" lon="5.34204">
        <ele>699.02</ele>
        <time>2018-11-12T11:13:27Z</time>
      </trkpt>
      <trkpt lat="43.99726" lon="5.34201">
        <ele>699.98</ele>
        <time>2018-11-12T11:13:41Z</time>
      </trkpt>
      <trkpt lat="43.99726" lon="5.342">
        <ele>699.98</ele>
        <time>2018-11-12T11:14:09Z</time>
      </trkpt>
      <trkpt lat="43.99727" lon="5.34206">
        <ele>699.98</ele>
        <time>2018-11-12T11:14:35Z</time>
      </trkpt>
      <trkpt lat="43.99729" lon="5.34205">
        <ele>700.46</ele>
        <time>2018-11-12T11:15:05Z</time>
      </trkpt>
      <trkpt lat="43.99729" lon="5.34198">
        <ele>700.46</ele>
        <time>2018-11-12T11:15:31Z</time>
      </trkpt>
      <trkpt lat="43.99731" lon="5.34202">
        <ele>700.94</ele>
        <time>2018-11-12T11:15:55Z</time>
      </trkpt>
      <trkpt lat="43.99729" lon="5.34203">
        <ele>700.94</ele>
        <time>2018-11-12T11:16:25Z</time>
      </trkpt>
      <trkpt lat="43.99731" lon="5.342">
        <ele>701.42</ele>
        <time>2018-11-12T11:16:51Z</time>
      </trkpt>
      <trkpt lat="43.99731" lon="5.34203">
        <ele>699.98</ele>
        <time>2018-11-12T11:17:12Z</time>
      </trkpt>
      <trkpt lat="43.99732" lon="5.34203">
        <ele>699.98</ele>
        <time>2018-11-12T11:17:40Z</time>
      </trkpt>
      <trkpt lat="43.99732" lon="5.34208">
        <ele>699.02</ele>
        <time>2018-11-12T11:18:03Z</time>
      </trkpt>
      <trkpt lat="43.99731" lon="5.34209">
        <ele>700.94</ele>
        <time>2018-11-12T11:18:31Z</time>
      </trkpt>
      <trkpt lat="43.9973" lon="5.34206">
        <ele>699.5</ele>
        <time>2018-11-12T11:18:44Z</time>
      </trkpt>
      <trkpt lat="43.99729" lon="5.34203">
        <ele>700.94</ele>
        <time>2018-11-12T11:19:15Z</time>
      </trkpt>
      <trkpt lat="43.99729" lon="5.34202">
        <ele>699.98</ele>
        <time>2018-11-12T11:19:28Z</time>
      </trkpt>
      <trkpt lat="43.99729" lon="5.34203">
        <ele>699.5</ele>
        <time>2018-11-12T11:20:01Z</time>
      </trkpt>
      <trkpt lat="43.9973" lon="5.34203">
        <ele>699.02</ele>
        <time>2018-11-12T11:20:25Z</time>
      </trkpt>
      <trkpt lat="43.9973" lon="5.34199">
        <ele>700.46</ele>
        <time>2018-11-12T11:20:58Z</time>
      </trkpt>
      <trkpt lat="43.9973" lon="5.34203">
        <ele>699.5</ele>
        <time>2018-11-12T11:21:32Z</time>
      </trkpt>
      <trkpt lat="43.99731" lon="5.34203">
        <ele>700.46</ele>
        <time>2018-11-12T11:22:06Z</time>
      </trkpt>
      <trkpt lat="43.9973" lon="5.34209">
        <ele>699.02</ele>
        <time>2018-11-12T11:22:29Z</time>
      </trkpt>
      <trkpt lat="43.9973" lon="5.34201">
        <ele>699.02</ele>
        <time>2018-11-12T11:22:54Z</time>
      </trkpt>
      <trkpt lat="43.99733" lon="5.34196">
        <ele>699.98</ele>
        <time>2018-11-12T11:23:30Z</time>
      </trkpt>
      <trkpt lat="43.99729" lon="5.34195">
        <ele>700.46</ele>
        <time>2018-11-12T11:24:00Z</time>
      </trkpt>
      <trkpt lat="43.99728" lon="5.34199">
        <ele>699.5</ele>
        <time>2018-11-12T11:24:28Z</time>
      </trkpt>
      <trkpt lat="43.99727" lon="5.34202">
        <ele>700.46</ele>
        <time>2018-11-12T11:24:43Z</time>
      </trkpt>
      <trkpt lat="43.99726" lon="5.34197">
        <ele>700.46</ele>
        <time>2018-11-12T11:25:14Z</time>
      </trkpt>
      <trkpt lat="43.99728" lon="5.34198">
        <ele>700.46</ele>
        <time>2018-11-12T11:25:42Z</time>
      </trkpt>
      <trkpt lat="43.99727" lon="5.342">
        <ele>700.46</ele>
        <time>2018-11-12T11:26:04Z</time>
      </trkpt>
      <trkpt lat="43.99732" lon="5.34207">
        <ele>699.5</ele>
        <time>2018-11-12T11:26:31Z</time>
      </trkpt>
      <trkpt lat="43.99728" lon="5.34204">
        <ele>699.5</ele>
        <time>2018-11-12T11:26:59Z</time>
      </trkpt>
      <trkpt lat="43.99728" lon="5.34204">
        <ele>700.46</ele>
        <time>2018-11-12T11:27:02Z</time>
      </trkpt>
      <trkpt lat="43.99732" lon="5.34206">
        <ele>700.94</ele>
        <time>2018-11-12T11:27:36Z</time>
      </trkpt>
      <trkpt lat="43.9973" lon="5.34202">
        <ele>699.5</ele>
        <time>2018-11-12T11:28:06Z</time>
      </trkpt>
      <trkpt lat="43.99731" lon="5.34199">
        <ele>700.46</ele>
        <time>2018-11-12T11:28:36Z</time>
      </trkpt>
      <trkpt lat="43.99729" lon="5.34197">
        <ele>700.46</ele>
        <time>2018-11-12T11:29:05Z</time>
      </trkpt>
      <trkpt lat="43.99731" lon="5.34197">
        <ele>698.53</ele>
        <time>2018-11-12T11:29:34Z</time>
      </trkpt>
      <trkpt lat="43.99731" lon="5.34197">
        <ele>699.98</ele>
        <time>2018-11-12T11:29:37Z</time>
      </trkpt>
      <trkpt lat="43.99728" lon="5.34194">
        <ele>699.98</ele>
        <time>2018-11-12T11:30:06Z</time>
      </trkpt>
      <trkpt lat="43.9973" lon="5.34197">
        <ele>700.94</ele>
        <time>2018-11-12T11:30:44Z</time>
      </trkpt>
      <trkpt lat="43.99729" lon="5.34198">
        <ele>701.42</ele>
        <time>2018-11-12T11:30:59Z</time>
      </trkpt>
      <trkpt lat="43.99729" lon="5.34198">
        <ele>699.98</ele>
        <time>2018-11-12T11:31:26Z</time>
      </trkpt>
      <trkpt lat="43.99729" lon="5.34203">
        <ele>700.46</ele>
        <time>2018-11-12T11:31:50Z</time>
      </trkpt>
      <trkpt lat="43.99731" lon="5.342">
        <ele>700.46</ele>
        <time>2018-11-12T11:32:11Z</time>
      </trkpt>
      <trkpt lat="43.99734" lon="5.34201">
        <ele>699.98</ele>
        <time>2018-11-12T11:32:42Z</time>
      </trkpt>
      <trkpt lat="43.99733" lon="5.34201">
        <ele>701.42</ele>
        <time>2018-11-12T11:32:53Z</time>
      </trkpt>
      <trkpt lat="43.99733" lon="5.34203">
        <ele>701.9</ele>
        <time>2018-11-12T11:33:15Z</time>
      </trkpt>
      <trkpt lat="43.99734" lon="5.34205">
        <ele>700.94</ele>
        <time>2018-11-12T11:33:36Z</time>
      </trkpt>
      <trkpt lat="43.99734" lon="5.34204">
        <ele>700.46</ele>
        <time>2018-11-12T11:34:08Z</time>
      </trkpt>
      <trkpt lat="43.99734" lon="5.34204">
        <ele>701.9</ele>
        <time>2018-11-12T11:34:17Z</time>
      </trkpt>
      <trkpt lat="43.99732" lon="5.34204">
        <ele>700.46</ele>
        <time>2018-11-12T11:34:42Z</time>
      </trkpt>
      <trkpt lat="43.99733" lon="5.34202">
        <ele>699.98</ele>
        <time>2018-11-12T11:35:06Z</time>
      </trkpt>
      <trkpt lat="43.99735" lon="5.342">
        <ele>699.98</ele>
        <time>2018-11-12T11:35:39Z</time>
      </trkpt>
      <trkpt lat="43.99735" lon="5.34199">
        <ele>699.98</ele>
        <time>2018-11-12T11:35:58Z</time>
      </trkpt>
      <trkpt lat="43.99734" lon="5.34194">
        <ele>701.42</ele>
        <time>2018-11-12T11:36:24Z</time>
      </trkpt>
      <trkpt lat="43.99734" lon="5.342">
        <ele>699.02</ele>
        <time>2018-11-12T11:36:46Z</time>
      </trkpt>
      <trkpt lat="43.99735" lon="5.34202">
        <ele>700.46</ele>
        <time>2018-11-12T11:37:11Z</time>
      </trkpt>
      <trkpt lat="43.99733" lon="5.34202">
        <ele>699.02</ele>
        <time>2018-11-12T11:37:44Z</time>
      </trkpt>
      <trkpt lat="43.99732" lon="5.34201">
        <ele>699.02</ele>
        <time>2018-11-12T11:38:01Z</time>
      </trkpt>
      <trkpt lat="43.99732" lon="5.34202">
        <ele>700.46</ele>
        <time>2018-11-12T11:38:36Z</time>
      </trkpt>
      <trkpt lat="43.99732" lon="5.34202">
        <ele>700.46</ele>
        <time>2018-11-12T11:38:37Z</time>
      </trkpt>
      <trkpt lat="43.99733" lon="5.342">
        <ele>699.02</ele>
        <time>2018-11-12T11:39:07Z</time>
      </trkpt>
      <trkpt lat="43.99733" lon="5.342">
        <ele>700.46</ele>
        <time>2018-11-12T11:39:11Z</time>
      </trkpt>
      <trkpt lat="43.99734" lon="5.34202">
        <ele>700.94</ele>
        <time>2018-11-12T11:39:31Z</time>
      </trkpt>
      <trkpt lat="43.99729" lon="5.34202">
        <ele>699.5</ele>
        <time>2018-11-12T11:39:48Z</time>
      </trkpt>
      <trkpt lat="43.99729" lon="5.34203">
        <ele>700.46</ele>
        <time>2018-11-12T11:40:11Z</time>
      </trkpt>
      <trkpt lat="43.99733" lon="5.34204">
        <ele>700.94</ele>
        <time>2018-11-12T11:40:31Z</time>
      </trkpt>
      <trkpt lat="43.99736" lon="5.34192">
        <ele>698.05</ele>
        <time>2018-11-12T11:40:50Z</time>
      </trkpt>
      <trkpt lat="43.99731" lon="5.34181">
        <ele>698.05</ele>
        <time>2018-11-12T11:41:02Z</time>
      </trkpt>
      <trkpt lat="43.99723" lon="5.3417">
        <ele>696.61</ele>
        <time>2018-11-12T11:41:20Z</time>
      </trkpt>
      <trkpt lat="43.99712" lon="5.34154">
        <ele>695.65</ele>
        <time>2018-11-12T11:41:40Z</time>
      </trkpt>
      <trkpt lat="43.99705" lon="5.34142">
        <ele>694.21</ele>
        <time>2018-11-12T11:41:58Z</time>
      </trkpt>
      <trkpt lat="43.99697" lon="5.34128">
        <ele>695.65</ele>
        <time>2018-11-12T11:42:19Z</time>
      </trkpt>
      <trkpt lat="43.9969" lon="5.34116">
        <ele>695.17</ele>
        <time>2018-11-12T11:42:33Z</time>
      </trkpt>
      <trkpt lat="43.99678" lon="5.34105">
        <ele>693.25</ele>
        <time>2018-11-12T11:42:52Z</time>
      </trkpt>
      <trkpt lat="43.99668" lon="5.34098">
        <ele>692.77</ele>
        <time>2018-11-12T11:43:08Z</time>
      </trkpt>
      <trkpt lat="43.99669" lon="5.34087">
        <ele>691.81</ele>
        <time>2018-11-12T11:43:24Z</time>
      </trkpt>
      <trkpt lat="43.99668" lon="5.34086">
        <ele>692.77</ele>
        <time>2018-11-12T11:43:48Z</time>
      </trkpt>
      <trkpt lat="43.99668" lon="5.34085">
        <ele>692.77</ele>
        <time>2018-11-12T11:43:49Z</time>
      </trkpt>
      <trkpt lat="43.9967" lon="5.34082">
        <ele>693.25</ele>
        <time>2018-11-12T11:44:18Z</time>
      </trkpt>
      <trkpt lat="43.99669" lon="5.34105">
        <ele>692.29</ele>
        <time>2018-11-12T11:44:35Z</time>
      </trkpt>
      <trkpt lat="43.99677" lon="5.34115">
        <ele>692.29</ele>
        <time>2018-11-12T11:44:53Z</time>
      </trkpt>
      <trkpt lat="43.99684" lon="5.34119">
        <ele>693.73</ele>
        <time>2018-11-12T11:45:01Z</time>
      </trkpt>
      <trkpt lat="43.99698" lon="5.34132">
        <ele>695.17</ele>
        <time>2018-11-12T11:45:20Z</time>
      </trkpt>
      <trkpt lat="43.99706" lon="5.34143">
        <ele>695.65</ele>
        <time>2018-11-12T11:45:40Z</time>
      </trkpt>
      <trkpt lat="43.9971" lon="5.34148">
        <ele>697.09</ele>
        <time>2018-11-12T11:45:57Z</time>
      </trkpt>
      <trkpt lat="43.9972" lon="5.34156">
        <ele>697.57</ele>
        <time>2018-11-12T11:46:14Z</time>
      </trkpt>
      <trkpt lat="43.99725" lon="5.34169">
        <ele>698.05</ele>
        <time>2018-11-12T11:46:28Z</time>
      </trkpt>
      <trkpt lat="43.99732" lon="5.34181">
        <ele>698.53</ele>
        <time>2018-11-12T11:46:39Z</time>
      </trkpt>
      <trkpt lat="43.99743" lon="5.34205">
        <ele>699.5</ele>
        <time>2018-11-12T11:46:58Z</time>
      </trkpt>
      <trkpt lat="43.99744" lon="5.34208">
        <ele>700.46</ele>
        <time>2018-11-12T11:47:16Z</time>
      </trkpt>
      <trkpt lat="43.99749" lon="5.34218">
        <ele>700.46</ele>
        <time>2018-11-12T11:47:44Z</time>
      </trkpt>
      <trkpt lat="43.99758" lon="5.34245">
        <ele>701.9</ele>
        <time>2018-11-12T11:48:04Z</time>
      </trkpt>
      <trkpt lat="43.99771" lon="5.34274">
        <ele>702.38</ele>
        <time>2018-11-12T11:48:28Z</time>
      </trkpt>
      <trkpt lat="43.99779" lon="5.34288">
        <ele>703.34</ele>
        <time>2018-11-12T11:48:46Z</time>
      </trkpt>
      <trkpt lat="43.99796" lon="5.34313">
        <ele>704.3</ele>
        <time>2018-11-12T11:49:11Z</time>
      </trkpt>
      <trkpt lat="43.9981" lon="5.34333">
        <ele>705.26</ele>
        <time>2018-11-12T11:49:30Z</time>
      </trkpt>
      <trkpt lat="43.99826" lon="5.34357">
        <ele>707.19</ele>
        <time>2018-11-12T11:49:53Z</time>
      </trkpt>
      <trkpt lat="43.99838" lon="5.34375">
        <ele>707.67</ele>
        <time>2018-11-12T11:50:13Z</time>
      </trkpt>
      <trkpt lat="43.99851" lon="5.34396">
        <ele>708.63</ele>
        <time>2018-11-12T11:50:33Z</time>
      </trkpt>
      <trkpt lat="43.99863" lon="5.34413">
        <ele>709.59</ele>
        <time>2018-11-12T11:50:51Z</time>
      </trkpt>
      <trkpt lat="43.99879" lon="5.34431">
        <ele>710.07</ele>
        <time>2018-11-12T11:51:10Z</time>
      </trkpt>
      <trkpt lat="43.99892" lon="5.34442">
        <ele>711.03</ele>
        <time>2018-11-12T11:51:27Z</time>
      </trkpt>
      <trkpt lat="43.99911" lon="5.34444">
        <ele>711.03</ele>
        <time>2018-11-12T11:51:47Z</time>
      </trkpt>
      <trkpt lat="43.99931" lon="5.34438">
        <ele>708.63</ele>
        <time>2018-11-12T11:52:04Z</time>
      </trkpt>
      <trkpt lat="43.99948" lon="5.34431">
        <ele>707.67</ele>
        <time>2018-11-12T11:52:23Z</time>
      </trkpt>
      <trkpt lat="43.99963" lon="5.34428">
        <ele>707.67</ele>
        <time>2018-11-12T11:52:39Z</time>
      </trkpt>
      <trkpt lat="43.99978" lon="5.34434">
        <ele>708.63</ele>
        <time>2018-11-12T11:52:54Z</time>
      </trkpt>
      <trkpt lat="43.99987" lon="5.34439">
        <ele>707.19</ele>
        <time>2018-11-12T11:53:04Z</time>
      </trkpt>
      <trkpt lat="43.99996" lon="5.34442">
        <ele>708.15</ele>
        <time>2018-11-12T11:53:12Z</time>
      </trkpt>
      <trkpt lat="44.00011" lon="5.34448">
        <ele>711.03</ele>
        <time>2018-11-12T11:53:31Z</time>
      </trkpt>
      <trkpt lat="44.00026" lon="5.34452">
        <ele>712.95</ele>
        <time>2018-11-12T11:53:47Z</time>
      </trkpt>
      <trkpt lat="44.00043" lon="5.34459">
        <ele>714.88</ele>
        <time>2018-11-12T11:54:07Z</time>
      </trkpt>
      <trkpt lat="44.00058" lon="5.34465">
        <ele>715.36</ele>
        <time>2018-11-12T11:54:25Z</time>
      </trkpt>
      <trkpt lat="44.00075" lon="5.34472">
        <ele>717.28</ele>
        <time>2018-11-12T11:54:45Z</time>
      </trkpt>
      <trkpt lat="44.0009" lon="5.34476">
        <ele>717.76</ele>
        <time>2018-11-12T11:55:04Z</time>
      </trkpt>
      <trkpt lat="44.00103" lon="5.34482">
        <ele>720.65</ele>
        <time>2018-11-12T11:55:21Z</time>
      </trkpt>
      <trkpt lat="44.00117" lon="5.34491">
        <ele>722.57</ele>
        <time>2018-11-12T11:55:40Z</time>
      </trkpt>
      <trkpt lat="44.0013" lon="5.34494">
        <ele>723.05</ele>
        <time>2018-11-12T11:55:57Z</time>
      </trkpt>
      <trkpt lat="44.00147" lon="5.34498">
        <ele>724.49</ele>
        <time>2018-11-12T11:56:16Z</time>
      </trkpt>
      <trkpt lat="44.00163" lon="5.34506">
        <ele>726.41</ele>
        <time>2018-11-12T11:56:37Z</time>
      </trkpt>
      <trkpt lat="44.00178" lon="5.34508">
        <ele>727.86</ele>
        <time>2018-11-12T11:56:56Z</time>
      </trkpt>
      <trkpt lat="44.00196" lon="5.34515">
        <ele>728.82</ele>
        <time>2018-11-12T11:57:15Z</time>
      </trkpt>
      <trkpt lat="44.00214" lon="5.34518">
        <ele>729.3</ele>
        <time>2018-11-12T11:57:34Z</time>
      </trkpt>
      <trkpt lat="44.00223" lon="5.34521">
        <ele>729.78</ele>
        <time>2018-11-12T11:57:51Z</time>
      </trkpt>
      <trkpt lat="44.00225" lon="5.3452">
        <ele>729.78</ele>
        <time>2018-11-12T11:58:20Z</time>
      </trkpt>
      <trkpt lat="44.00221" lon="5.34519">
        <ele>730.26</ele>
        <time>2018-11-12T11:58:39Z</time>
      </trkpt>
      <trkpt lat="44.00223" lon="5.3452">
        <ele>730.26</ele>
        <time>2018-11-12T11:59:00Z</time>
      </trkpt>
      <trkpt lat="44.00221" lon="5.3452">
        <ele>730.26</ele>
        <time>2018-11-12T11:59:21Z</time>
      </trkpt>
      <trkpt lat="44.00219" lon="5.34519">
        <ele>730.26</ele>
        <time>2018-11-12T11:59:55Z</time>
      </trkpt>
      <trkpt lat="44.00237" lon="5.34523">
        <ele>730.26</ele>
        <time>2018-11-12T12:00:16Z</time>
      </trkpt>
      <trkpt lat="44.00253" lon="5.34526">
        <ele>730.26</ele>
        <time>2018-11-12T12:00:33Z</time>
      </trkpt>
      <trkpt lat="44.00269" lon="5.34531">
        <ele>730.74</ele>
        <time>2018-11-12T12:00:50Z</time>
      </trkpt>
      <trkpt lat="44.00282" lon="5.34534">
        <ele>731.7</ele>
        <time>2018-11-12T12:01:07Z</time>
      </trkpt>
      <trkpt lat="44.00303" lon="5.34538">
        <ele>732.18</ele>
        <time>2018-11-12T12:01:25Z</time>
      </trkpt>
      <trkpt lat="44.0032" lon="5.34541">
        <ele>732.66</ele>
        <time>2018-11-12T12:01:42Z</time>
      </trkpt>
      <trkpt lat="44.00338" lon="5.34544">
        <ele>733.62</ele>
        <time>2018-11-12T12:02:02Z</time>
      </trkpt>
      <trkpt lat="44.00356" lon="5.34548">
        <ele>734.58</ele>
        <time>2018-11-12T12:02:20Z</time>
      </trkpt>
      <trkpt lat="44.00376" lon="5.34552">
        <ele>734.58</ele>
        <time>2018-11-12T12:02:40Z</time>
      </trkpt>
      <trkpt lat="44.00392" lon="5.34556">
        <ele>735.07</ele>
        <time>2018-11-12T12:02:58Z</time>
      </trkpt>
      <trkpt lat="44.00408" lon="5.3456">
        <ele>736.51</ele>
        <time>2018-11-12T12:03:14Z</time>
      </trkpt>
      <trkpt lat="44.0043" lon="5.34563">
        <ele>736.03</ele>
        <time>2018-11-12T12:03:36Z</time>
      </trkpt>
      <trkpt lat="44.0045" lon="5.34565">
        <ele>736.99</ele>
        <time>2018-11-12T12:03:56Z</time>
      </trkpt>
      <trkpt lat="44.00467" lon="5.34571">
        <ele>737.95</ele>
        <time>2018-11-12T12:04:16Z</time>
      </trkpt>
      <trkpt lat="44.00487" lon="5.34575">
        <ele>739.39</ele>
        <time>2018-11-12T12:04:33Z</time>
      </trkpt>
      <trkpt lat="44.00505" lon="5.34579">
        <ele>740.83</ele>
        <time>2018-11-12T12:04:51Z</time>
      </trkpt>
      <trkpt lat="44.00523" lon="5.34582">
        <ele>741.79</ele>
        <time>2018-11-12T12:05:10Z</time>
      </trkpt>
      <trkpt lat="44.00541" lon="5.34585">
        <ele>742.76</ele>
        <time>2018-11-12T12:05:27Z</time>
      </trkpt>
      <trkpt lat="44.00554" lon="5.34589">
        <ele>743.24</ele>
        <time>2018-11-12T12:05:42Z</time>
      </trkpt>
      <trkpt lat="44.00576" lon="5.34593">
        <ele>744.2</ele>
        <time>2018-11-12T12:06:02Z</time>
      </trkpt>
      <trkpt lat="44.00594" lon="5.34598">
        <ele>744.68</ele>
        <time>2018-11-12T12:06:19Z</time>
      </trkpt>
      <trkpt lat="44.00612" lon="5.34602">
        <ele>745.64</ele>
        <time>2018-11-12T12:06:37Z</time>
      </trkpt>
      <trkpt lat="44.00632" lon="5.34604">
        <ele>746.12</ele>
        <time>2018-11-12T12:06:56Z</time>
      </trkpt>
      <trkpt lat="44.00652" lon="5.34609">
        <ele>746.6</ele>
        <time>2018-11-12T12:07:15Z</time>
      </trkpt>
      <trkpt lat="44.00672" lon="5.34615">
        <ele>747.08</ele>
        <time>2018-11-12T12:07:35Z</time>
      </trkpt>
      <trkpt lat="44.00681" lon="5.34615">
        <ele>747.56</ele>
        <time>2018-11-12T12:07:52Z</time>
      </trkpt>
      <trkpt lat="44.00681" lon="5.34614">
        <ele>747.56</ele>
        <time>2018-11-12T12:08:09Z</time>
      </trkpt>
      <trkpt lat="44.00682" lon="5.34615">
        <ele>748.04</ele>
        <time>2018-11-12T12:08:33Z</time>
      </trkpt>
      <trkpt lat="44.00682" lon="5.34615">
        <ele>746.6</ele>
        <time>2018-11-12T12:08:35Z</time>
      </trkpt>
      <trkpt lat="44.00683" lon="5.34614">
        <ele>746.6</ele>
        <time>2018-11-12T12:09:12Z</time>
      </trkpt>
      <trkpt lat="44.00683" lon="5.34617">
        <ele>748.52</ele>
        <time>2018-11-12T12:09:41Z</time>
      </trkpt>
      <trkpt lat="44.00682" lon="5.34617">
        <ele>747.08</ele>
        <time>2018-11-12T12:10:14Z</time>
      </trkpt>
      <trkpt lat="44.00685" lon="5.34617">
        <ele>747.08</ele>
        <time>2018-11-12T12:10:50Z</time>
      </trkpt>
      <trkpt lat="44.00695" lon="5.34617">
        <ele>746.6</ele>
        <time>2018-11-12T12:11:05Z</time>
      </trkpt>
      <trkpt lat="44.00712" lon="5.34622">
        <ele>746.6</ele>
        <time>2018-11-12T12:11:24Z</time>
      </trkpt>
      <trkpt lat="44.00727" lon="5.34624">
        <ele>746.6</ele>
        <time>2018-11-12T12:11:39Z</time>
      </trkpt>
      <trkpt lat="44.00747" lon="5.3463">
        <ele>746.6</ele>
        <time>2018-11-12T12:11:57Z</time>
      </trkpt>
      <trkpt lat="44.00764" lon="5.34632">
        <ele>746.6</ele>
        <time>2018-11-12T12:12:17Z</time>
      </trkpt>
      <trkpt lat="44.00778" lon="5.34635">
        <ele>745.64</ele>
        <time>2018-11-12T12:12:34Z</time>
      </trkpt>
      <trkpt lat="44.00795" lon="5.34639">
        <ele>745.64</ele>
        <time>2018-11-12T12:12:51Z</time>
      </trkpt>
      <trkpt lat="44.00802" lon="5.34639">
        <ele>745.64</ele>
        <time>2018-11-12T12:13:10Z</time>
      </trkpt>
      <trkpt lat="44.00797" lon="5.34637">
        <ele>745.64</ele>
        <time>2018-11-12T12:13:23Z</time>
      </trkpt>
      <trkpt lat="44.0079" lon="5.34647">
        <ele>745.64</ele>
        <time>2018-11-12T12:13:38Z</time>
      </trkpt>
      <trkpt lat="44.0079" lon="5.34666">
        <ele>745.16</ele>
        <time>2018-11-12T12:13:55Z</time>
      </trkpt>
      <trkpt lat="44.00785" lon="5.34679">
        <ele>745.16</ele>
        <time>2018-11-12T12:14:12Z</time>
      </trkpt>
      <trkpt lat="44.00782" lon="5.34683">
        <ele>745.16</ele>
        <time>2018-11-12T12:14:36Z</time>
      </trkpt>
      <trkpt lat="44.00782" lon="5.34686">
        <ele>745.16</ele>
        <time>2018-11-12T12:14:45Z</time>
      </trkpt>
      <trkpt lat="44.00783" lon="5.34684">
        <ele>744.2</ele>
        <time>2018-11-12T12:14:56Z</time>
      </trkpt>
      <trkpt lat="44.00782" lon="5.34682">
        <ele>743.72</ele>
        <time>2018-11-12T12:15:37Z</time>
      </trkpt>
      <trkpt lat="44.00782" lon="5.34684">
        <ele>743.72</ele>
        <time>2018-11-12T12:16:07Z</time>
      </trkpt>
      <trkpt lat="44.00781" lon="5.34684">
        <ele>743.72</ele>
        <time>2018-11-12T12:16:42Z</time>
      </trkpt>
      <trkpt lat="44.00782" lon="5.34684">
        <ele>743.72</ele>
        <time>2018-11-12T12:17:15Z</time>
      </trkpt>
      <trkpt lat="44.00782" lon="5.34684">
        <ele>743.72</ele>
        <time>2018-11-12T12:17:47Z</time>
      </trkpt>
      <trkpt lat="44.00783" lon="5.34684">
        <ele>743.24</ele>
        <time>2018-11-12T12:18:06Z</time>
      </trkpt>
      <trkpt lat="44.00781" lon="5.34685">
        <ele>744.68</ele>
        <time>2018-11-12T12:18:09Z</time>
      </trkpt>
      <trkpt lat="44.00783" lon="5.34683">
        <ele>745.16</ele>
        <time>2018-11-12T12:18:19Z</time>
      </trkpt>
      <trkpt lat="44.00784" lon="5.34682">
        <ele>743.72</ele>
        <time>2018-11-12T12:18:40Z</time>
      </trkpt>
      <trkpt lat="44.00783" lon="5.34681">
        <ele>745.16</ele>
        <time>2018-11-12T12:18:45Z</time>
      </trkpt>
      <trkpt lat="44.00783" lon="5.34681">
        <ele>745.16</ele>
        <time>2018-11-12T12:19:09Z</time>
      </trkpt>
      <trkpt lat="44.0078" lon="5.34683">
        <ele>741.79</ele>
        <time>2018-11-12T12:19:21Z</time>
      </trkpt>
      <trkpt lat="44.0078" lon="5.34683">
        <ele>747.56</ele>
        <time>2018-11-12T12:19:22Z</time>
      </trkpt>
      <trkpt lat="44.00787" lon="5.34674">
        <ele>744.68</ele>
        <time>2018-11-12T12:19:35Z</time>
      </trkpt>
      <trkpt lat="44.00789" lon="5.34658">
        <ele>746.6</ele>
        <time>2018-11-12T12:19:48Z</time>
      </trkpt>
      <trkpt lat="44.00791" lon="5.34639">
        <ele>746.6</ele>
        <time>2018-11-12T12:20:04Z</time>
      </trkpt>
      <trkpt lat="44.00806" lon="5.34642">
        <ele>745.16</ele>
        <time>2018-11-12T12:20:19Z</time>
      </trkpt>
      <trkpt lat="44.00824" lon="5.34646">
        <ele>744.68</ele>
        <time>2018-11-12T12:20:36Z</time>
      </trkpt>
      <trkpt lat="44.0084" lon="5.3465">
        <ele>744.2</ele>
        <time>2018-11-12T12:20:52Z</time>
      </trkpt>
      <trkpt lat="44.00856" lon="5.34654">
        <ele>743.24</ele>
        <time>2018-11-12T12:21:09Z</time>
      </trkpt>
      <trkpt lat="44.0087" lon="5.34658">
        <ele>742.76</ele>
        <time>2018-11-12T12:21:26Z</time>
      </trkpt>
      <trkpt lat="44.00878" lon="5.34659">
        <ele>742.28</ele>
        <time>2018-11-12T12:21:36Z</time>
      </trkpt>
      <trkpt lat="44.00895" lon="5.34663">
        <ele>740.83</ele>
        <time>2018-11-12T12:21:52Z</time>
      </trkpt>
      <trkpt lat="44.00918" lon="5.34668">
        <ele>740.83</ele>
        <time>2018-11-12T12:22:12Z</time>
      </trkpt>
      <trkpt lat="44.00936" lon="5.34671">
        <ele>740.83</ele>
        <time>2018-11-12T12:22:32Z</time>
      </trkpt>
      <trkpt lat="44.00948" lon="5.34672">
        <ele>740.83</ele>
        <time>2018-11-12T12:22:54Z</time>
      </trkpt>
      <trkpt lat="44.00966" lon="5.34677">
        <ele>740.83</ele>
        <time>2018-11-12T12:23:14Z</time>
      </trkpt>
      <trkpt lat="44.00985" lon="5.34682">
        <ele>740.83</ele>
        <time>2018-11-12T12:23:31Z</time>
      </trkpt>
      <trkpt lat="44.01005" lon="5.34686">
        <ele>742.76</ele>
        <time>2018-11-12T12:23:50Z</time>
      </trkpt>
      <trkpt lat="44.0101" lon="5.34689">
        <ele>740.35</ele>
        <time>2018-11-12T12:23:55Z</time>
      </trkpt>
      <trkpt lat="44.01028" lon="5.34693">
        <ele>740.35</ele>
        <time>2018-11-12T12:24:14Z</time>
      </trkpt>
      <trkpt lat="44.01048" lon="5.347">
        <ele>742.28</ele>
        <time>2018-11-12T12:24:35Z</time>
      </trkpt>
      <trkpt lat="44.01067" lon="5.34709">
        <ele>743.24</ele>
        <time>2018-11-12T12:24:53Z</time>
      </trkpt>
      <trkpt lat="44.0108" lon="5.34718">
        <ele>743.72</ele>
        <time>2018-11-12T12:25:09Z</time>
      </trkpt>
      <trkpt lat="44.01096" lon="5.34727">
        <ele>744.68</ele>
        <time>2018-11-12T12:25:27Z</time>
      </trkpt>
      <trkpt lat="44.01112" lon="5.34735">
        <ele>745.16</ele>
        <time>2018-11-12T12:25:44Z</time>
      </trkpt>
      <trkpt lat="44.01123" lon="5.3474">
        <ele>745.64</ele>
        <time>2018-11-12T12:26:04Z</time>
      </trkpt>
      <trkpt lat="44.01134" lon="5.34745">
        <ele>745.64</ele>
        <time>2018-11-12T12:26:23Z</time>
      </trkpt>
      <trkpt lat="44.01143" lon="5.3475">
        <ele>745.64</ele>
        <time>2018-11-12T12:26:37Z</time>
      </trkpt>
      <trkpt lat="44.01163" lon="5.34758">
        <ele>746.12</ele>
        <time>2018-11-12T12:26:54Z</time>
      </trkpt>
      <trkpt lat="44.01177" lon="5.34761">
        <ele>746.12</ele>
        <time>2018-11-12T12:27:09Z</time>
      </trkpt>
      <trkpt lat="44.0119" lon="5.34763">
        <ele>746.6</ele>
        <time>2018-11-12T12:27:24Z</time>
      </trkpt>
      <trkpt lat="44.01212" lon="5.34767">
        <ele>747.08</ele>
        <time>2018-11-12T12:27:42Z</time>
      </trkpt>
      <trkpt lat="44.01231" lon="5.34769">
        <ele>747.56</ele>
        <time>2018-11-12T12:28:00Z</time>
      </trkpt>
      <trkpt lat="44.01246" lon="5.34772">
        <ele>747.56</ele>
        <time>2018-11-12T12:28:16Z</time>
      </trkpt>
      <trkpt lat="44.01261" lon="5.34776">
        <ele>748.04</ele>
        <time>2018-11-12T12:28:32Z</time>
      </trkpt>
      <trkpt lat="44.01275" lon="5.34781">
        <ele>748.04</ele>
        <time>2018-11-12T12:28:47Z</time>
      </trkpt>
      <trkpt lat="44.01295" lon="5.34784">
        <ele>748.04</ele>
        <time>2018-11-12T12:29:05Z</time>
      </trkpt>
      <trkpt lat="44.01315" lon="5.34786">
        <ele>748.04</ele>
        <time>2018-11-12T12:29:23Z</time>
      </trkpt>
      <trkpt lat="44.01331" lon="5.34787">
        <ele>748.04</ele>
        <time>2018-11-12T12:29:36Z</time>
      </trkpt>
      <trkpt lat="44.01347" lon="5.34789">
        <ele>748.04</ele>
        <time>2018-11-12T12:29:53Z</time>
      </trkpt>
      <trkpt lat="44.01367" lon="5.34792">
        <ele>748.04</ele>
        <time>2018-11-12T12:30:13Z</time>
      </trkpt>
      <trkpt lat="44.01383" lon="5.34788">
        <ele>748.04</ele>
        <time>2018-11-12T12:30:28Z</time>
      </trkpt>
      <trkpt lat="44.01396" lon="5.34782">
        <ele>749</ele>
        <time>2018-11-12T12:30:45Z</time>
      </trkpt>
      <trkpt lat="44.01409" lon="5.34776">
        <ele>750.45</ele>
        <time>2018-11-12T12:31:01Z</time>
      </trkpt>
      <trkpt lat="44.01422" lon="5.3477">
        <ele>750.93</ele>
        <time>2018-11-12T12:31:16Z</time>
      </trkpt>
      <trkpt lat="44.01436" lon="5.34758">
        <ele>751.89</ele>
        <time>2018-11-12T12:31:33Z</time>
      </trkpt>
      <trkpt lat="44.01452" lon="5.34748">
        <ele>751.89</ele>
        <time>2018-11-12T12:31:52Z</time>
      </trkpt>
      <trkpt lat="44.01465" lon="5.34745">
        <ele>752.85</ele>
        <time>2018-11-12T12:32:08Z</time>
      </trkpt>
      <trkpt lat="44.01467" lon="5.34741">
        <ele>752.85</ele>
        <time>2018-11-12T12:32:23Z</time>
      </trkpt>
      <trkpt lat="44.01465" lon="5.34741">
        <ele>753.33</ele>
        <time>2018-11-12T12:32:51Z</time>
      </trkpt>
      <trkpt lat="44.01465" lon="5.3474">
        <ele>754.29</ele>
        <time>2018-11-12T12:33:21Z</time>
      </trkpt>
      <trkpt lat="44.01466" lon="5.3474">
        <ele>752.85</ele>
        <time>2018-11-12T12:33:54Z</time>
      </trkpt>
      <trkpt lat="44.01467" lon="5.3474">
        <ele>752.85</ele>
        <time>2018-11-12T12:34:18Z</time>
      </trkpt>
      <trkpt lat="44.01457" lon="5.34723">
        <ele>752.37</ele>
        <time>2018-11-12T12:34:36Z</time>
      </trkpt>
      <trkpt lat="44.01449" lon="5.34703">
        <ele>751.89</ele>
        <time>2018-11-12T12:34:53Z</time>
      </trkpt>
      <trkpt lat="44.01445" lon="5.34688">
        <ele>753.33</ele>
        <time>2018-11-12T12:35:04Z</time>
      </trkpt>
      <trkpt lat="44.01436" lon="5.34664">
        <ele>753.81</ele>
        <time>2018-11-12T12:35:23Z</time>
      </trkpt>
      <trkpt lat="44.01434" lon="5.34658">
        <ele>753.81</ele>
        <time>2018-11-12T12:35:28Z</time>
      </trkpt>
      <trkpt lat="44.01432" lon="5.34627">
        <ele>753.81</ele>
        <time>2018-11-12T12:35:48Z</time>
      </trkpt>
      <trkpt lat="44.0143" lon="5.34611">
        <ele>754.29</ele>
        <time>2018-11-12T12:36:02Z</time>
      </trkpt>
      <trkpt lat="44.01427" lon="5.34603">
        <ele>755.25</ele>
        <time>2018-11-12T12:36:09Z</time>
      </trkpt>
      <trkpt lat="44.01413" lon="5.34587">
        <ele>756.69</ele>
        <time>2018-11-12T12:36:29Z</time>
      </trkpt>
      <trkpt lat="44.01405" lon="5.34582">
        <ele>758.14</ele>
        <time>2018-11-12T12:36:38Z</time>
      </trkpt>
      <trkpt lat="44.01381" lon="5.34579">
        <ele>758.14</ele>
        <time>2018-11-12T12:36:59Z</time>
      </trkpt>
      <trkpt lat="44.0136" lon="5.34568">
        <ele>758.62</ele>
        <time>2018-11-12T12:37:19Z</time>
      </trkpt>
      <trkpt lat="44.01345" lon="5.3455">
        <ele>759.58</ele>
        <time>2018-11-12T12:37:39Z</time>
      </trkpt>
      <trkpt lat="44.01331" lon="5.34527">
        <ele>760.54</ele>
        <time>2018-11-12T12:37:58Z</time>
      </trkpt>
      <trkpt lat="44.01313" lon="5.34508">
        <ele>761.5</ele>
        <time>2018-11-12T12:38:19Z</time>
      </trkpt>
      <trkpt lat="44.01294" lon="5.3449">
        <ele>761.98</ele>
        <time>2018-11-12T12:38:41Z</time>
      </trkpt>
      <trkpt lat="44.01271" lon="5.34477">
        <ele>761.98</ele>
        <time>2018-11-12T12:39:03Z</time>
      </trkpt>
      <trkpt lat="44.01254" lon="5.34466">
        <ele>761.98</ele>
        <time>2018-11-12T12:39:21Z</time>
      </trkpt>
      <trkpt lat="44.01235" lon="5.34451">
        <ele>761.02</ele>
        <time>2018-11-12T12:39:40Z</time>
      </trkpt>
      <trkpt lat="44.01221" lon="5.34432">
        <ele>760.06</ele>
        <time>2018-11-12T12:39:58Z</time>
      </trkpt>
      <trkpt lat="44.01208" lon="5.34416">
        <ele>760.06</ele>
        <time>2018-11-12T12:40:15Z</time>
      </trkpt>
      <trkpt lat="44.01205" lon="5.34411">
        <ele>760.06</ele>
        <time>2018-11-12T12:40:20Z</time>
      </trkpt>
      <trkpt lat="44.01201" lon="5.34403">
        <ele>761.5</ele>
        <time>2018-11-12T12:40:26Z</time>
      </trkpt>
      <trkpt lat="44.01193" lon="5.34381">
        <ele>762.46</ele>
        <time>2018-11-12T12:40:44Z</time>
      </trkpt>
      <trkpt lat="44.0119" lon="5.34359">
        <ele>763.9</ele>
        <time>2018-11-12T12:41:01Z</time>
      </trkpt>
      <trkpt lat="44.01186" lon="5.34338">
        <ele>765.35</ele>
        <time>2018-11-12T12:41:17Z</time>
      </trkpt>
      <trkpt lat="44.01173" lon="5.34322">
        <ele>766.31</ele>
        <time>2018-11-12T12:41:33Z</time>
      </trkpt>
      <trkpt lat="44.01169" lon="5.34312">
        <ele>766.31</ele>
        <time>2018-11-12T12:41:40Z</time>
      </trkpt>
      <trkpt lat="44.01173" lon="5.3428">
        <ele>768.23</ele>
        <time>2018-11-12T12:42:02Z</time>
      </trkpt>
      <trkpt lat="44.01183" lon="5.34249">
        <ele>769.19</ele>
        <time>2018-11-12T12:42:24Z</time>
      </trkpt>
      <trkpt lat="44.01189" lon="5.34219">
        <ele>770.15</ele>
        <time>2018-11-12T12:42:45Z</time>
      </trkpt>
      <trkpt lat="44.01201" lon="5.34192">
        <ele>771.6</ele>
        <time>2018-11-12T12:43:07Z</time>
      </trkpt>
      <trkpt lat="44.01212" lon="5.34172">
        <ele>772.56</ele>
        <time>2018-11-12T12:43:24Z</time>
      </trkpt>
      <trkpt lat="44.01222" lon="5.34149">
        <ele>774</ele>
        <time>2018-11-12T12:43:42Z</time>
      </trkpt>
      <trkpt lat="44.01231" lon="5.34129">
        <ele>774</ele>
        <time>2018-11-12T12:44:00Z</time>
      </trkpt>
      <trkpt lat="44.0125" lon="5.34113">
        <ele>774.48</ele>
        <time>2018-11-12T12:44:20Z</time>
      </trkpt>
      <trkpt lat="44.01264" lon="5.34106">
        <ele>775.44</ele>
        <time>2018-11-12T12:44:35Z</time>
      </trkpt>
      <trkpt lat="44.01279" lon="5.34099">
        <ele>776.4</ele>
        <time>2018-11-12T12:44:50Z</time>
      </trkpt>
      <trkpt lat="44.01295" lon="5.34089">
        <ele>777.36</ele>
        <time>2018-11-12T12:45:06Z</time>
      </trkpt>
      <trkpt lat="44.01312" lon="5.34078">
        <ele>778.32</ele>
        <time>2018-11-12T12:45:24Z</time>
      </trkpt>
      <trkpt lat="44.01328" lon="5.34071">
        <ele>779.77</ele>
        <time>2018-11-12T12:45:39Z</time>
      </trkpt>
      <trkpt lat="44.01341" lon="5.34069">
        <ele>780.73</ele>
        <time>2018-11-12T12:45:55Z</time>
      </trkpt>
      <trkpt lat="44.01353" lon="5.3407">
        <ele>781.21</ele>
        <time>2018-11-12T12:46:09Z</time>
      </trkpt>
      <trkpt lat="44.01369" lon="5.34068">
        <ele>782.65</ele>
        <time>2018-11-12T12:46:24Z</time>
      </trkpt>
      <trkpt lat="44.01377" lon="5.34063">
        <ele>783.13</ele>
        <time>2018-11-12T12:46:41Z</time>
      </trkpt>
      <trkpt lat="44.01379" lon="5.34062">
        <ele>783.13</ele>
        <time>2018-11-12T12:47:05Z</time>
      </trkpt>
      <trkpt lat="44.01379" lon="5.34063">
        <ele>783.13</ele>
        <time>2018-11-12T12:47:27Z</time>
      </trkpt>
      <trkpt lat="44.01381" lon="5.3406">
        <ele>783.13</ele>
        <time>2018-11-12T12:47:48Z</time>
      </trkpt>
      <trkpt lat="44.01382" lon="5.34062">
        <ele>781.69</ele>
        <time>2018-11-12T12:48:05Z</time>
      </trkpt>
      <trkpt lat="44.01381" lon="5.34062">
        <ele>783.13</ele>
        <time>2018-11-12T12:48:20Z</time>
      </trkpt>
      <trkpt lat="44.01381" lon="5.34062">
        <ele>784.09</ele>
        <time>2018-11-12T12:48:40Z</time>
      </trkpt>
      <trkpt lat="44.01381" lon="5.34061">
        <ele>784.09</ele>
        <time>2018-11-12T12:49:01Z</time>
      </trkpt>
      <trkpt lat="44.01381" lon="5.3406">
        <ele>784.09</ele>
        <time>2018-11-12T12:49:21Z</time>
      </trkpt>
      <trkpt lat="44.01381" lon="5.34059">
        <ele>785.05</ele>
        <time>2018-11-12T12:49:44Z</time>
      </trkpt>
      <trkpt lat="44.01381" lon="5.34059">
        <ele>783.61</ele>
        <time>2018-11-12T12:49:46Z</time>
      </trkpt>
      <trkpt lat="44.01381" lon="5.34059">
        <ele>783.13</ele>
        <time>2018-11-12T12:50:12Z</time>
      </trkpt>
      <trkpt lat="44.01381" lon="5.3406">
        <ele>783.13</ele>
        <time>2018-11-12T12:50:39Z</time>
      </trkpt>
      <trkpt lat="44.0139" lon="5.34057">
        <ele>783.13</ele>
        <time>2018-11-12T12:50:59Z</time>
      </trkpt>
      <trkpt lat="44.01394" lon="5.34055">
        <ele>784.57</ele>
        <time>2018-11-12T12:51:06Z</time>
      </trkpt>
      <trkpt lat="44.01406" lon="5.34047">
        <ele>784.57</ele>
        <time>2018-11-12T12:51:21Z</time>
      </trkpt>
      <trkpt lat="44.01422" lon="5.34037">
        <ele>785.53</ele>
        <time>2018-11-12T12:51:38Z</time>
      </trkpt>
      <trkpt lat="44.01424" lon="5.34035">
        <ele>785.53</ele>
        <time>2018-11-12T12:51:40Z</time>
      </trkpt>
      <trkpt lat="44.01441" lon="5.34027">
        <ele>785.53</ele>
        <time>2018-11-12T12:51:57Z</time>
      </trkpt>
      <trkpt lat="44.01455" lon="5.34017">
        <ele>786.98</ele>
        <time>2018-11-12T12:52:14Z</time>
      </trkpt>
      <trkpt lat="44.01471" lon="5.34001">
        <ele>787.94</ele>
        <time>2018-11-12T12:52:30Z</time>
      </trkpt>
      <trkpt lat="44.01484" lon="5.33987">
        <ele>789.38</ele>
        <time>2018-11-12T12:52:46Z</time>
      </trkpt>
      <trkpt lat="44.01491" lon="5.33979">
        <ele>789.86</ele>
        <time>2018-11-12T12:52:55Z</time>
      </trkpt>
      <trkpt lat="44.01515" lon="5.33958">
        <ele>790.34</ele>
        <time>2018-11-12T12:53:18Z</time>
      </trkpt>
      <trkpt lat="44.01522" lon="5.33955">
        <ele>790.82</ele>
        <time>2018-11-12T12:53:33Z</time>
      </trkpt>
      <trkpt lat="44.01523" lon="5.33945">
        <ele>791.3</ele>
        <time>2018-11-12T12:53:54Z</time>
      </trkpt>
      <trkpt lat="44.01534" lon="5.33929">
        <ele>791.3</ele>
        <time>2018-11-12T12:54:11Z</time>
      </trkpt>
      <trkpt lat="44.01535" lon="5.33927">
        <ele>790.34</ele>
        <time>2018-11-12T12:54:13Z</time>
      </trkpt>
      <trkpt lat="44.01541" lon="5.33909">
        <ele>789.38</ele>
        <time>2018-11-12T12:54:29Z</time>
      </trkpt>
      <trkpt lat="44.0155" lon="5.33894">
        <ele>788.42</ele>
        <time>2018-11-12T12:54:45Z</time>
      </trkpt>
      <trkpt lat="44.01557" lon="5.33873">
        <ele>789.86</ele>
        <time>2018-11-12T12:55:04Z</time>
      </trkpt>
      <trkpt lat="44.01565" lon="5.33853">
        <ele>792.26</ele>
        <time>2018-11-12T12:55:21Z</time>
      </trkpt>
      <trkpt lat="44.0157" lon="5.33833">
        <ele>794.19</ele>
        <time>2018-11-12T12:55:37Z</time>
      </trkpt>
      <trkpt lat="44.01579" lon="5.3382">
        <ele>795.63</ele>
        <time>2018-11-12T12:55:53Z</time>
      </trkpt>
      <trkpt lat="44.01591" lon="5.3381">
        <ele>797.55</ele>
        <time>2018-11-12T12:56:09Z</time>
      </trkpt>
      <trkpt lat="44.01601" lon="5.33801">
        <ele>798.51</ele>
        <time>2018-11-12T12:56:22Z</time>
      </trkpt>
      <trkpt lat="44.01611" lon="5.33793">
        <ele>799.95</ele>
        <time>2018-11-12T12:56:36Z</time>
      </trkpt>
      <trkpt lat="44.01624" lon="5.33783">
        <ele>802.36</ele>
        <time>2018-11-12T12:56:52Z</time>
      </trkpt>
      <trkpt lat="44.0164" lon="5.33776">
        <ele>803.8</ele>
        <time>2018-11-12T12:57:10Z</time>
      </trkpt>
      <trkpt lat="44.01652" lon="5.33772">
        <ele>805.24</ele>
        <time>2018-11-12T12:57:24Z</time>
      </trkpt>
      <trkpt lat="44.01666" lon="5.33765">
        <ele>806.68</ele>
        <time>2018-11-12T12:57:39Z</time>
      </trkpt>
      <trkpt lat="44.01679" lon="5.33758">
        <ele>808.13</ele>
        <time>2018-11-12T12:57:55Z</time>
      </trkpt>
      <trkpt lat="44.01688" lon="5.33752">
        <ele>810.05</ele>
        <time>2018-11-12T12:58:08Z</time>
      </trkpt>
      <trkpt lat="44.01699" lon="5.33744">
        <ele>811.01</ele>
        <time>2018-11-12T12:58:24Z</time>
      </trkpt>
      <trkpt lat="44.01711" lon="5.33732">
        <ele>812.45</ele>
        <time>2018-11-12T12:58:42Z</time>
      </trkpt>
      <trkpt lat="44.01718" lon="5.3372">
        <ele>813.89</ele>
        <time>2018-11-12T12:58:56Z</time>
      </trkpt>
      <trkpt lat="44.01713" lon="5.33706">
        <ele>816.3</ele>
        <time>2018-11-12T12:59:14Z</time>
      </trkpt>
      <trkpt lat="44.01702" lon="5.33695">
        <ele>818.7</ele>
        <time>2018-11-12T12:59:32Z</time>
      </trkpt>
      <trkpt lat="44.01702" lon="5.33677">
        <ele>820.62</ele>
        <time>2018-11-12T12:59:49Z</time>
      </trkpt>
      <trkpt lat="44.01705" lon="5.33662">
        <ele>822.06</ele>
        <time>2018-11-12T13:00:05Z</time>
      </trkpt>
      <trkpt lat="44.01711" lon="5.33645">
        <ele>823.51</ele>
        <time>2018-11-12T13:00:23Z</time>
      </trkpt>
      <trkpt lat="44.01713" lon="5.33631">
        <ele>824.95</ele>
        <time>2018-11-12T13:00:42Z</time>
      </trkpt>
      <trkpt lat="44.0171" lon="5.33612">
        <ele>826.39</ele>
        <time>2018-11-12T13:00:59Z</time>
      </trkpt>
      <trkpt lat="44.0171" lon="5.33593">
        <ele>827.83</ele>
        <time>2018-11-12T13:01:15Z</time>
      </trkpt>
      <trkpt lat="44.01719" lon="5.33574">
        <ele>829.76</ele>
        <time>2018-11-12T13:01:33Z</time>
      </trkpt>
      <trkpt lat="44.01727" lon="5.33561">
        <ele>831.2</ele>
        <time>2018-11-12T13:01:49Z</time>
      </trkpt>
      <trkpt lat="44.01735" lon="5.33548">
        <ele>832.64</ele>
        <time>2018-11-12T13:02:06Z</time>
      </trkpt>
      <trkpt lat="44.01737" lon="5.33543">
        <ele>832.64</ele>
        <time>2018-11-12T13:02:25Z</time>
      </trkpt>
      <trkpt lat="44.01736" lon="5.33543">
        <ele>832.64</ele>
        <time>2018-11-12T13:02:46Z</time>
      </trkpt>
      <trkpt lat="44.01738" lon="5.33545">
        <ele>831.68</ele>
        <time>2018-11-12T13:03:10Z</time>
      </trkpt>
      <trkpt lat="44.01738" lon="5.33547">
        <ele>831.68</ele>
        <time>2018-11-12T13:03:38Z</time>
      </trkpt>
      <trkpt lat="44.01736" lon="5.33544">
        <ele>831.68</ele>
        <time>2018-11-12T13:03:57Z</time>
      </trkpt>
      <trkpt lat="44.01737" lon="5.33542">
        <ele>831.68</ele>
        <time>2018-11-12T13:04:16Z</time>
      </trkpt>
      <trkpt lat="44.01735" lon="5.33541">
        <ele>831.68</ele>
        <time>2018-11-12T13:04:42Z</time>
      </trkpt>
      <trkpt lat="44.01734" lon="5.33541">
        <ele>833.12</ele>
        <time>2018-11-12T13:05:13Z</time>
      </trkpt>
      <trkpt lat="44.01734" lon="5.33541">
        <ele>833.12</ele>
        <time>2018-11-12T13:05:39Z</time>
      </trkpt>
      <trkpt lat="44.01728" lon="5.33535">
        <ele>833.12</ele>
        <time>2018-11-12T13:05:58Z</time>
      </trkpt>
      <trkpt lat="44.01722" lon="5.33529">
        <ele>832.16</ele>
        <time>2018-11-12T13:06:07Z</time>
      </trkpt>
      <trkpt lat="44.01713" lon="5.33512">
        <ele>832.16</ele>
        <time>2018-11-12T13:06:25Z</time>
      </trkpt>
      <trkpt lat="44.01704" lon="5.335">
        <ele>830.72</ele>
        <time>2018-11-12T13:06:41Z</time>
      </trkpt>
      <trkpt lat="44.01692" lon="5.33486">
        <ele>830.72</ele>
        <time>2018-11-12T13:06:57Z</time>
      </trkpt>
      <trkpt lat="44.01679" lon="5.33475">
        <ele>829.27</ele>
        <time>2018-11-12T13:07:14Z</time>
      </trkpt>
      <trkpt lat="44.01687" lon="5.33465">
        <ele>827.83</ele>
        <time>2018-11-12T13:07:29Z</time>
      </trkpt>
      <trkpt lat="44.01701" lon="5.3346">
        <ele>826.39</ele>
        <time>2018-11-12T13:07:45Z</time>
      </trkpt>
      <trkpt lat="44.0171" lon="5.33457">
        <ele>824.95</ele>
        <time>2018-11-12T13:07:59Z</time>
      </trkpt>
      <trkpt lat="44.01711" lon="5.33457">
        <ele>824.95</ele>
        <time>2018-11-12T13:08:00Z</time>
      </trkpt>
      <trkpt lat="44.01727" lon="5.33454">
        <ele>824.95</ele>
        <time>2018-11-12T13:08:17Z</time>
      </trkpt>
      <trkpt lat="44.01741" lon="5.33448">
        <ele>823.99</ele>
        <time>2018-11-12T13:08:32Z</time>
      </trkpt>
      <trkpt lat="44.01752" lon="5.33438">
        <ele>822.06</ele>
        <time>2018-11-12T13:08:49Z</time>
      </trkpt>
      <trkpt lat="44.01762" lon="5.33422">
        <ele>820.62</ele>
        <time>2018-11-12T13:09:04Z</time>
      </trkpt>
      <trkpt lat="44.01763" lon="5.33402">
        <ele>818.7</ele>
        <time>2018-11-12T13:09:21Z</time>
      </trkpt>
      <trkpt lat="44.01761" lon="5.33387">
        <ele>818.7</ele>
        <time>2018-11-12T13:09:31Z</time>
      </trkpt>
      <trkpt lat="44.01764" lon="5.33367">
        <ele>818.7</ele>
        <time>2018-11-12T13:09:45Z</time>
      </trkpt>
      <trkpt lat="44.01766" lon="5.33345">
        <ele>818.7</ele>
        <time>2018-11-12T13:10:02Z</time>
      </trkpt>
      <trkpt lat="44.01768" lon="5.33325">
        <ele>818.22</ele>
        <time>2018-11-12T13:10:18Z</time>
      </trkpt>
      <trkpt lat="44.0177" lon="5.33306">
        <ele>818.22</ele>
        <time>2018-11-12T13:10:34Z</time>
      </trkpt>
      <trkpt lat="44.01771" lon="5.33297">
        <ele>817.74</ele>
        <time>2018-11-12T13:10:49Z</time>
      </trkpt>
      <trkpt lat="44.0177" lon="5.33297">
        <ele>817.74</ele>
        <time>2018-11-12T13:11:06Z</time>
      </trkpt>
      <trkpt lat="44.01771" lon="5.33297">
        <ele>817.74</ele>
        <time>2018-11-12T13:11:23Z</time>
      </trkpt>
      <trkpt lat="44.0177" lon="5.33295">
        <ele>817.74</ele>
        <time>2018-11-12T13:11:50Z</time>
      </trkpt>
      <trkpt lat="44.0177" lon="5.33295">
        <ele>817.74</ele>
        <time>2018-11-12T13:12:16Z</time>
      </trkpt>
      <trkpt lat="44.01772" lon="5.33291">
        <ele>817.74</ele>
        <time>2018-11-12T13:12:33Z</time>
      </trkpt>
      <trkpt lat="44.01776" lon="5.33282">
        <ele>817.74</ele>
        <time>2018-11-12T13:12:54Z</time>
      </trkpt>
      <trkpt lat="44.01782" lon="5.33268">
        <ele>816.78</ele>
        <time>2018-11-12T13:13:10Z</time>
      </trkpt>
      <trkpt lat="44.01788" lon="5.33253">
        <ele>815.82</ele>
        <time>2018-11-12T13:13:23Z</time>
      </trkpt>
      <trkpt lat="44.01798" lon="5.33235">
        <ele>815.34</ele>
        <time>2018-11-12T13:13:42Z</time>
      </trkpt>
      <trkpt lat="44.01801" lon="5.33223">
        <ele>813.89</ele>
        <time>2018-11-12T13:13:53Z</time>
      </trkpt>
      <trkpt lat="44.01803" lon="5.33201">
        <ele>811.97</ele>
        <time>2018-11-12T13:14:11Z</time>
      </trkpt>
      <trkpt lat="44.01803" lon="5.3318">
        <ele>810.05</ele>
        <time>2018-11-12T13:14:29Z</time>
      </trkpt>
      <trkpt lat="44.01806" lon="5.3316">
        <ele>809.09</ele>
        <time>2018-11-12T13:14:47Z</time>
      </trkpt>
      <trkpt lat="44.01808" lon="5.33149">
        <ele>808.13</ele>
        <time>2018-11-12T13:15:03Z</time>
      </trkpt>
      <trkpt lat="44.01802" lon="5.3314">
        <ele>806.68</ele>
        <time>2018-11-12T13:15:22Z</time>
      </trkpt>
      <trkpt lat="44.01796" lon="5.33133">
        <ele>805.24</ele>
        <time>2018-11-12T13:15:37Z</time>
      </trkpt>
      <trkpt lat="44.01793" lon="5.33124">
        <ele>803.32</ele>
        <time>2018-11-12T13:15:58Z</time>
      </trkpt>
      <trkpt lat="44.01795" lon="5.33111">
        <ele>802.84</ele>
        <time>2018-11-12T13:16:14Z</time>
      </trkpt>
      <trkpt lat="44.01794" lon="5.33108">
        <ele>804.28</ele>
        <time>2018-11-12T13:16:18Z</time>
      </trkpt>
      <trkpt lat="44.01788" lon="5.33098">
        <ele>805.24</ele>
        <time>2018-11-12T13:16:34Z</time>
      </trkpt>
      <trkpt lat="44.01777" lon="5.33092">
        <ele>806.2</ele>
        <time>2018-11-12T13:16:49Z</time>
      </trkpt>
      <trkpt lat="44.01769" lon="5.33089">
        <ele>808.13</ele>
        <time>2018-11-12T13:17:05Z</time>
      </trkpt>
      <trkpt lat="44.0176" lon="5.33086">
        <ele>809.57</ele>
        <time>2018-11-12T13:17:21Z</time>
      </trkpt>
      <trkpt lat="44.01761" lon="5.33079">
        <ele>810.53</ele>
        <time>2018-11-12T13:17:35Z</time>
      </trkpt>
      <trkpt lat="44.01765" lon="5.33071">
        <ele>812.45</ele>
        <time>2018-11-12T13:17:51Z</time>
      </trkpt>
      <trkpt lat="44.01773" lon="5.3306">
        <ele>813.89</ele>
        <time>2018-11-12T13:18:07Z</time>
      </trkpt>
      <trkpt lat="44.01775" lon="5.33048">
        <ele>816.3</ele>
        <time>2018-11-12T13:18:24Z</time>
      </trkpt>
      <trkpt lat="44.01774" lon="5.33037">
        <ele>818.7</ele>
        <time>2018-11-12T13:18:42Z</time>
      </trkpt>
      <trkpt lat="44.01778" lon="5.33031">
        <ele>821.1</ele>
        <time>2018-11-12T13:18:56Z</time>
      </trkpt>
      <trkpt lat="44.01776" lon="5.33017">
        <ele>823.03</ele>
        <time>2018-11-12T13:19:15Z</time>
      </trkpt>
      <trkpt lat="44.01775" lon="5.33008">
        <ele>823.99</ele>
        <time>2018-11-12T13:19:30Z</time>
      </trkpt>
      <trkpt lat="44.01766" lon="5.32998">
        <ele>825.91</ele>
        <time>2018-11-12T13:19:48Z</time>
      </trkpt>
      <trkpt lat="44.01756" lon="5.32988">
        <ele>827.35</ele>
        <time>2018-11-12T13:20:05Z</time>
      </trkpt>
      <trkpt lat="44.01748" lon="5.3298">
        <ele>828.31</ele>
        <time>2018-11-12T13:20:21Z</time>
      </trkpt>
      <trkpt lat="44.01739" lon="5.32972">
        <ele>829.27</ele>
        <time>2018-11-12T13:20:37Z</time>
      </trkpt>
      <trkpt lat="44.0173" lon="5.32964">
        <ele>830.24</ele>
        <time>2018-11-12T13:20:53Z</time>
      </trkpt>
      <trkpt lat="44.01721" lon="5.32949">
        <ele>832.16</ele>
        <time>2018-11-12T13:21:10Z</time>
      </trkpt>
      <trkpt lat="44.01711" lon="5.32937">
        <ele>834.08</ele>
        <time>2018-11-12T13:21:24Z</time>
      </trkpt>
      <trkpt lat="44.017" lon="5.32924">
        <ele>835.04</ele>
        <time>2018-11-12T13:21:42Z</time>
      </trkpt>
      <trkpt lat="44.01698" lon="5.32915">
        <ele>836</ele>
        <time>2018-11-12T13:21:55Z</time>
      </trkpt>
      <trkpt lat="44.01694" lon="5.32899">
        <ele>837.93</ele>
        <time>2018-11-12T13:22:11Z</time>
      </trkpt>
      <trkpt lat="44.01689" lon="5.32886">
        <ele>838.89</ele>
        <time>2018-11-12T13:22:28Z</time>
      </trkpt>
      <trkpt lat="44.01693" lon="5.32874">
        <ele>840.33</ele>
        <time>2018-11-12T13:22:43Z</time>
      </trkpt>
      <trkpt lat="44.01693" lon="5.32873">
        <ele>839.85</ele>
        <time>2018-11-12T13:22:59Z</time>
      </trkpt>
      <trkpt lat="44.01691" lon="5.32875">
        <ele>838.89</ele>
        <time>2018-11-12T13:23:14Z</time>
      </trkpt>
      <trkpt lat="44.0169" lon="5.32876">
        <ele>838.41</ele>
        <time>2018-11-12T13:23:22Z</time>
      </trkpt>
      <trkpt lat="44.0169" lon="5.32876">
        <ele>840.33</ele>
        <time>2018-11-12T13:23:24Z</time>
      </trkpt>
      <trkpt lat="44.01691" lon="5.32876">
        <ele>838.89</ele>
        <time>2018-11-12T13:23:26Z</time>
      </trkpt>
      <trkpt lat="44.0169" lon="5.32877">
        <ele>839.85</ele>
        <time>2018-11-12T13:23:33Z</time>
      </trkpt>
      <trkpt lat="44.0169" lon="5.32878">
        <ele>838.89</ele>
        <time>2018-11-12T13:23:48Z</time>
      </trkpt>
      <trkpt lat="44.0169" lon="5.32878">
        <ele>840.33</ele>
        <time>2018-11-12T13:23:59Z</time>
      </trkpt>
      <trkpt lat="44.0169" lon="5.32875">
        <ele>840.33</ele>
        <time>2018-11-12T13:24:11Z</time>
      </trkpt>
      <trkpt lat="44.0169" lon="5.32875">
        <ele>838.89</ele>
        <time>2018-11-12T13:24:15Z</time>
      </trkpt>
      <trkpt lat="44.01691" lon="5.32875">
        <ele>840.81</ele>
        <time>2018-11-12T13:24:25Z</time>
      </trkpt>
      <trkpt lat="44.01691" lon="5.32876">
        <ele>839.37</ele>
        <time>2018-11-12T13:24:27Z</time>
      </trkpt>
      <trkpt lat="44.01691" lon="5.32874">
        <ele>838.89</ele>
        <time>2018-11-12T13:24:52Z</time>
      </trkpt>
      <trkpt lat="44.01691" lon="5.32875">
        <ele>838.89</ele>
        <time>2018-11-12T13:24:53Z</time>
      </trkpt>
      <trkpt lat="44.01691" lon="5.32875">
        <ele>840.81</ele>
        <time>2018-11-12T13:24:55Z</time>
      </trkpt>
      <trkpt lat="44.01691" lon="5.32875">
        <ele>839.37</ele>
        <time>2018-11-12T13:25:00Z</time>
      </trkpt>
      <trkpt lat="44.01693" lon="5.32874">
        <ele>839.37</ele>
        <time>2018-11-12T13:25:19Z</time>
      </trkpt>
      <trkpt lat="44.01692" lon="5.32874">
        <ele>840.33</ele>
        <time>2018-11-12T13:25:30Z</time>
      </trkpt>
      <trkpt lat="44.01692" lon="5.32874">
        <ele>838.89</ele>
        <time>2018-11-12T13:25:39Z</time>
      </trkpt>
      <trkpt lat="44.01688" lon="5.32871">
        <ele>839.85</ele>
        <time>2018-11-12T13:26:02Z</time>
      </trkpt>
      <trkpt lat="44.01676" lon="5.32858">
        <ele>838.89</ele>
        <time>2018-11-12T13:26:20Z</time>
      </trkpt>
      <trkpt lat="44.01665" lon="5.32845">
        <ele>838.41</ele>
        <time>2018-11-12T13:26:36Z</time>
      </trkpt>
      <trkpt lat="44.01658" lon="5.32833">
        <ele>838.41</ele>
        <time>2018-11-12T13:26:52Z</time>
      </trkpt>
      <trkpt lat="44.01658" lon="5.32812">
        <ele>839.85</ele>
        <time>2018-11-12T13:27:09Z</time>
      </trkpt>
      <trkpt lat="44.01652" lon="5.32794">
        <ele>840.33</ele>
        <time>2018-11-12T13:27:26Z</time>
      </trkpt>
      <trkpt lat="44.01649" lon="5.32785">
        <ele>838.89</ele>
        <time>2018-11-12T13:27:33Z</time>
      </trkpt>
      <trkpt lat="44.01648" lon="5.32782">
        <ele>839.85</ele>
        <time>2018-11-12T13:27:35Z</time>
      </trkpt>
      <trkpt lat="44.01645" lon="5.32772">
        <ele>838.89</ele>
        <time>2018-11-12T13:27:44Z</time>
      </trkpt>
      <trkpt lat="44.01641" lon="5.32754">
        <ele>838.41</ele>
        <time>2018-11-12T13:28:02Z</time>
      </trkpt>
      <trkpt lat="44.01637" lon="5.32737">
        <ele>837.93</ele>
        <time>2018-11-12T13:28:18Z</time>
      </trkpt>
      <trkpt lat="44.01644" lon="5.3272">
        <ele>836.96</ele>
        <time>2018-11-12T13:28:33Z</time>
      </trkpt>
      <trkpt lat="44.0165" lon="5.32704">
        <ele>836.96</ele>
        <time>2018-11-12T13:28:49Z</time>
      </trkpt>
      <trkpt lat="44.0165" lon="5.32687">
        <ele>835.52</ele>
        <time>2018-11-12T13:29:06Z</time>
      </trkpt>
      <trkpt lat="44.01645" lon="5.3267">
        <ele>834.08</ele>
        <time>2018-11-12T13:29:23Z</time>
      </trkpt>
      <trkpt lat="44.01641" lon="5.32661">
        <ele>832.64</ele>
        <time>2018-11-12T13:29:38Z</time>
      </trkpt>
      <trkpt lat="44.01636" lon="5.32655">
        <ele>832.16</ele>
        <time>2018-11-12T13:29:51Z</time>
      </trkpt>
      <trkpt lat="44.01627" lon="5.32644">
        <ele>830.24</ele>
        <time>2018-11-12T13:30:08Z</time>
      </trkpt>
      <trkpt lat="44.01621" lon="5.32632">
        <ele>827.35</ele>
        <time>2018-11-12T13:30:25Z</time>
      </trkpt>
      <trkpt lat="44.01619" lon="5.32622">
        <ele>825.91</ele>
        <time>2018-11-12T13:30:40Z</time>
      </trkpt>
      <trkpt lat="44.01617" lon="5.32611">
        <ele>826.39</ele>
        <time>2018-11-12T13:30:56Z</time>
      </trkpt>
      <trkpt lat="44.01618" lon="5.32609">
        <ele>824.95</ele>
        <time>2018-11-12T13:30:59Z</time>
      </trkpt>
      <trkpt lat="44.01617" lon="5.32599">
        <ele>821.1</ele>
        <time>2018-11-12T13:31:14Z</time>
      </trkpt>
      <trkpt lat="44.01612" lon="5.3259">
        <ele>820.62</ele>
        <time>2018-11-12T13:31:31Z</time>
      </trkpt>
      <trkpt lat="44.01608" lon="5.32579">
        <ele>819.66</ele>
        <time>2018-11-12T13:31:47Z</time>
      </trkpt>
      <trkpt lat="44.016" lon="5.32569">
        <ele>818.22</ele>
        <time>2018-11-12T13:32:03Z</time>
      </trkpt>
      <trkpt lat="44.01596" lon="5.32555">
        <ele>815.82</ele>
        <time>2018-11-12T13:32:21Z</time>
      </trkpt>
      <trkpt lat="44.01591" lon="5.32541">
        <ele>815.34</ele>
        <time>2018-11-12T13:32:37Z</time>
      </trkpt>
      <trkpt lat="44.01594" lon="5.3253">
        <ele>813.89</ele>
        <time>2018-11-12T13:32:55Z</time>
      </trkpt>
      <trkpt lat="44.01589" lon="5.32517">
        <ele>812.45</ele>
        <time>2018-11-12T13:33:12Z</time>
      </trkpt>
      <trkpt lat="44.01581" lon="5.32504">
        <ele>811.49</ele>
        <time>2018-11-12T13:33:29Z</time>
      </trkpt>
      <trkpt lat="44.01575" lon="5.32492">
        <ele>810.53</ele>
        <time>2018-11-12T13:33:44Z</time>
      </trkpt>
      <trkpt lat="44.01582" lon="5.32488">
        <ele>810.05</ele>
        <time>2018-11-12T13:33:59Z</time>
      </trkpt>
      <trkpt lat="44.01584" lon="5.32487">
        <ele>809.09</ele>
        <time>2018-11-12T13:34:22Z</time>
      </trkpt>
      <trkpt lat="44.01584" lon="5.32487">
        <ele>810.53</ele>
        <time>2018-11-12T13:34:24Z</time>
      </trkpt>
      <trkpt lat="44.01584" lon="5.32488">
        <ele>810.53</ele>
        <time>2018-11-12T13:34:46Z</time>
      </trkpt>
      <trkpt lat="44.01583" lon="5.32485">
        <ele>810.53</ele>
        <time>2018-11-12T13:35:06Z</time>
      </trkpt>
      <trkpt lat="44.0159" lon="5.32484">
        <ele>810.53</ele>
        <time>2018-11-12T13:35:23Z</time>
      </trkpt>
      <trkpt lat="44.01591" lon="5.32483">
        <ele>809.09</ele>
        <time>2018-11-12T13:35:26Z</time>
      </trkpt>
      <trkpt lat="44.01602" lon="5.3248">
        <ele>807.64</ele>
        <time>2018-11-12T13:35:41Z</time>
      </trkpt>
      <trkpt lat="44.01616" lon="5.32477">
        <ele>808.61</ele>
        <time>2018-11-12T13:35:57Z</time>
      </trkpt>
      <trkpt lat="44.01629" lon="5.32474">
        <ele>810.05</ele>
        <time>2018-11-12T13:36:11Z</time>
      </trkpt>
      <trkpt lat="44.01644" lon="5.32472">
        <ele>811.01</ele>
        <time>2018-11-12T13:36:27Z</time>
      </trkpt>
      <trkpt lat="44.01655" lon="5.32469">
        <ele>812.93</ele>
        <time>2018-11-12T13:36:41Z</time>
      </trkpt>
      <trkpt lat="44.0167" lon="5.32464">
        <ele>813.89</ele>
        <time>2018-11-12T13:36:56Z</time>
      </trkpt>
      <trkpt lat="44.01685" lon="5.32455">
        <ele>813.89</ele>
        <time>2018-11-12T13:37:12Z</time>
      </trkpt>
      <trkpt lat="44.01699" lon="5.32451">
        <ele>812.45</ele>
        <time>2018-11-12T13:37:28Z</time>
      </trkpt>
      <trkpt lat="44.01714" lon="5.32448">
        <ele>812.45</ele>
        <time>2018-11-12T13:37:43Z</time>
      </trkpt>
      <trkpt lat="44.01727" lon="5.32449">
        <ele>811.49</ele>
        <time>2018-11-12T13:37:59Z</time>
      </trkpt>
      <trkpt lat="44.01743" lon="5.32448">
        <ele>810.53</ele>
        <time>2018-11-12T13:38:15Z</time>
      </trkpt>
      <trkpt lat="44.0176" lon="5.32452">
        <ele>809.09</ele>
        <time>2018-11-12T13:38:31Z</time>
      </trkpt>
      <trkpt lat="44.01772" lon="5.32459">
        <ele>810.05</ele>
        <time>2018-11-12T13:38:48Z</time>
      </trkpt>
      <trkpt lat="44.01788" lon="5.3247">
        <ele>810.05</ele>
        <time>2018-11-12T13:39:04Z</time>
      </trkpt>
      <trkpt lat="44.01802" lon="5.32479">
        <ele>810.53</ele>
        <time>2018-11-12T13:39:20Z</time>
      </trkpt>
      <trkpt lat="44.01812" lon="5.32487">
        <ele>811.01</ele>
        <time>2018-11-12T13:39:33Z</time>
      </trkpt>
      <trkpt lat="44.01826" lon="5.32494">
        <ele>811.01</ele>
        <time>2018-11-12T13:39:49Z</time>
      </trkpt>
      <trkpt lat="44.01839" lon="5.32492">
        <ele>811.97</ele>
        <time>2018-11-12T13:40:05Z</time>
      </trkpt>
      <trkpt lat="44.01849" lon="5.32482">
        <ele>812.45</ele>
        <time>2018-11-12T13:40:18Z</time>
      </trkpt>
      <trkpt lat="44.01864" lon="5.32467">
        <ele>811.97</ele>
        <time>2018-11-12T13:40:36Z</time>
      </trkpt>
      <trkpt lat="44.01868" lon="5.32461">
        <ele>811.01</ele>
        <time>2018-11-12T13:40:42Z</time>
      </trkpt>
      <trkpt lat="44.0187" lon="5.32458">
        <ele>811.01</ele>
        <time>2018-11-12T13:40:45Z</time>
      </trkpt>
      <trkpt lat="44.0187" lon="5.32435">
        <ele>809.57</ele>
        <time>2018-11-12T13:41:02Z</time>
      </trkpt>
      <trkpt lat="44.01869" lon="5.32421">
        <ele>808.61</ele>
        <time>2018-11-12T13:41:18Z</time>
      </trkpt>
      <trkpt lat="44.01866" lon="5.32402">
        <ele>805.72</ele>
        <time>2018-11-12T13:41:34Z</time>
      </trkpt>
      <trkpt lat="44.01862" lon="5.32385">
        <ele>805.72</ele>
        <time>2018-11-12T13:41:49Z</time>
      </trkpt>
      <trkpt lat="44.01863" lon="5.32362">
        <ele>805.72</ele>
        <time>2018-11-12T13:42:05Z</time>
      </trkpt>
      <trkpt lat="44.01864" lon="5.32357">
        <ele>807.16</ele>
        <time>2018-11-12T13:42:09Z</time>
      </trkpt>
      <trkpt lat="44.01868" lon="5.32342">
        <ele>808.13</ele>
        <time>2018-11-12T13:42:22Z</time>
      </trkpt>
      <trkpt lat="44.01869" lon="5.32326">
        <ele>808.13</ele>
        <time>2018-11-12T13:42:36Z</time>
      </trkpt>
      <trkpt lat="44.01871" lon="5.32309">
        <ele>808.61</ele>
        <time>2018-11-12T13:42:49Z</time>
      </trkpt>
      <trkpt lat="44.01874" lon="5.32288">
        <ele>808.61</ele>
        <time>2018-11-12T13:43:03Z</time>
      </trkpt>
      <trkpt lat="44.01881" lon="5.32277">
        <ele>810.05</ele>
        <time>2018-11-12T13:43:18Z</time>
      </trkpt>
      <trkpt lat="44.01888" lon="5.32268">
        <ele>811.01</ele>
        <time>2018-11-12T13:43:31Z</time>
      </trkpt>
      <trkpt lat="44.01899" lon="5.32257">
        <ele>812.45</ele>
        <time>2018-11-12T13:43:47Z</time>
      </trkpt>
      <trkpt lat="44.01909" lon="5.32243">
        <ele>813.41</ele>
        <time>2018-11-12T13:44:03Z</time>
      </trkpt>
      <trkpt lat="44.01914" lon="5.32232">
        <ele>811.97</ele>
        <time>2018-11-12T13:44:15Z</time>
      </trkpt>
      <trkpt lat="44.01924" lon="5.32216">
        <ele>811.01</ele>
        <time>2018-11-12T13:44:31Z</time>
      </trkpt>
      <trkpt lat="44.01935" lon="5.32205">
        <ele>809.57</ele>
        <time>2018-11-12T13:44:47Z</time>
      </trkpt>
      <trkpt lat="44.0194" lon="5.32201">
        <ele>809.09</ele>
        <time>2018-11-12T13:44:54Z</time>
      </trkpt>
      <trkpt lat="44.01954" lon="5.32197">
        <ele>808.13</ele>
        <time>2018-11-12T13:45:11Z</time>
      </trkpt>
      <trkpt lat="44.01966" lon="5.32193">
        <ele>805.72</ele>
        <time>2018-11-12T13:45:28Z</time>
      </trkpt>
      <trkpt lat="44.01969" lon="5.32188">
        <ele>805.24</ele>
        <time>2018-11-12T13:45:34Z</time>
      </trkpt>
      <trkpt lat="44.01973" lon="5.32181">
        <ele>804.76</ele>
        <time>2018-11-12T13:45:39Z</time>
      </trkpt>
      <trkpt lat="44.01975" lon="5.32173">
        <ele>804.28</ele>
        <time>2018-11-12T13:45:44Z</time>
      </trkpt>
      <trkpt lat="44.01976" lon="5.3216">
        <ele>804.28</ele>
        <time>2018-11-12T13:45:55Z</time>
      </trkpt>
      <trkpt lat="44.0198" lon="5.32143">
        <ele>805.72</ele>
        <time>2018-11-12T13:46:08Z</time>
      </trkpt>
      <trkpt lat="44.01987" lon="5.32125">
        <ele>806.2</ele>
        <time>2018-11-12T13:46:23Z</time>
      </trkpt>
      <trkpt lat="44.01997" lon="5.32113">
        <ele>807.16</ele>
        <time>2018-11-12T13:46:39Z</time>
      </trkpt>
      <trkpt lat="44.02013" lon="5.32101">
        <ele>808.13</ele>
        <time>2018-11-12T13:46:57Z</time>
      </trkpt>
      <trkpt lat="44.02027" lon="5.32087">
        <ele>807.64</ele>
        <time>2018-11-12T13:47:15Z</time>
      </trkpt>
      <trkpt lat="44.02039" lon="5.32077">
        <ele>807.64</ele>
        <time>2018-11-12T13:47:30Z</time>
      </trkpt>
      <trkpt lat="44.02054" lon="5.32066">
        <ele>807.64</ele>
        <time>2018-11-12T13:47:46Z</time>
      </trkpt>
      <trkpt lat="44.02069" lon="5.32059">
        <ele>807.64</ele>
        <time>2018-11-12T13:48:02Z</time>
      </trkpt>
      <trkpt lat="44.02075" lon="5.32057">
        <ele>807.64</ele>
        <time>2018-11-12T13:48:10Z</time>
      </trkpt>
      <trkpt lat="44.02084" lon="5.32056">
        <ele>807.64</ele>
        <time>2018-11-12T13:48:18Z</time>
      </trkpt>
      <trkpt lat="44.02098" lon="5.32056">
        <ele>807.64</ele>
        <time>2018-11-12T13:48:32Z</time>
      </trkpt>
      <trkpt lat="44.02106" lon="5.32055">
        <ele>807.64</ele>
        <time>2018-11-12T13:48:49Z</time>
      </trkpt>
      <trkpt lat="44.02112" lon="5.32054">
        <ele>807.64</ele>
        <time>2018-11-12T13:49:19Z</time>
      </trkpt>
      <trkpt lat="44.02112" lon="5.32053">
        <ele>807.64</ele>
        <time>2018-11-12T13:49:50Z</time>
      </trkpt>
      <trkpt lat="44.02111" lon="5.32054">
        <ele>807.64</ele>
        <time>2018-11-12T13:50:13Z</time>
      </trkpt>
      <trkpt lat="44.02114" lon="5.32053">
        <ele>807.64</ele>
        <time>2018-11-12T13:50:29Z</time>
      </trkpt>
      <trkpt lat="44.02122" lon="5.32052">
        <ele>807.64</ele>
        <time>2018-11-12T13:50:37Z</time>
      </trkpt>
      <trkpt lat="44.02137" lon="5.32052">
        <ele>808.61</ele>
        <time>2018-11-12T13:50:52Z</time>
      </trkpt>
      <trkpt lat="44.02154" lon="5.32055">
        <ele>808.61</ele>
        <time>2018-11-12T13:51:10Z</time>
      </trkpt>
      <trkpt lat="44.0217" lon="5.32059">
        <ele>810.05</ele>
        <time>2018-11-12T13:51:26Z</time>
      </trkpt>
      <trkpt lat="44.02188" lon="5.32061">
        <ele>810.05</ele>
        <time>2018-11-12T13:51:43Z</time>
      </trkpt>
      <trkpt lat="44.02202" lon="5.32062">
        <ele>810.53</ele>
        <time>2018-11-12T13:51:58Z</time>
      </trkpt>
      <trkpt lat="44.0222" lon="5.32062">
        <ele>811.01</ele>
        <time>2018-11-12T13:52:14Z</time>
      </trkpt>
      <trkpt lat="44.02237" lon="5.32062">
        <ele>811.01</ele>
        <time>2018-11-12T13:52:29Z</time>
      </trkpt>
      <trkpt lat="44.02253" lon="5.32062">
        <ele>811.49</ele>
        <time>2018-11-12T13:52:45Z</time>
      </trkpt>
      <trkpt lat="44.02269" lon="5.32064">
        <ele>811.97</ele>
        <time>2018-11-12T13:53:01Z</time>
      </trkpt>
      <trkpt lat="44.02289" lon="5.32064">
        <ele>811.97</ele>
        <time>2018-11-12T13:53:18Z</time>
      </trkpt>
      <trkpt lat="44.02303" lon="5.32068">
        <ele>812.93</ele>
        <time>2018-11-12T13:53:34Z</time>
      </trkpt>
      <trkpt lat="44.02319" lon="5.32072">
        <ele>814.85</ele>
        <time>2018-11-12T13:53:51Z</time>
      </trkpt>
      <trkpt lat="44.02337" lon="5.32071">
        <ele>815.34</ele>
        <time>2018-11-12T13:54:09Z</time>
      </trkpt>
      <trkpt lat="44.02353" lon="5.32066">
        <ele>815.34</ele>
        <time>2018-11-12T13:54:26Z</time>
      </trkpt>
      <trkpt lat="44.02355" lon="5.32063">
        <ele>815.34</ele>
        <time>2018-11-12T13:54:29Z</time>
      </trkpt>
      <trkpt lat="44.02361" lon="5.32043">
        <ele>814.37</ele>
        <time>2018-11-12T13:54:47Z</time>
      </trkpt>
      <trkpt lat="44.02367" lon="5.32022">
        <ele>813.89</ele>
        <time>2018-11-12T13:55:06Z</time>
      </trkpt>
      <trkpt lat="44.02373" lon="5.32002">
        <ele>813.41</ele>
        <time>2018-11-12T13:55:23Z</time>
      </trkpt>
      <trkpt lat="44.02373" lon="5.32">
        <ele>813.41</ele>
        <time>2018-11-12T13:55:25Z</time>
      </trkpt>
      <trkpt lat="44.02377" lon="5.31978">
        <ele>814.37</ele>
        <time>2018-11-12T13:55:41Z</time>
      </trkpt>
      <trkpt lat="44.02382" lon="5.31962">
        <ele>814.37</ele>
        <time>2018-11-12T13:55:55Z</time>
      </trkpt>
      <trkpt lat="44.02384" lon="5.31937">
        <ele>815.34</ele>
        <time>2018-11-12T13:56:13Z</time>
      </trkpt>
      <trkpt lat="44.02392" lon="5.31913">
        <ele>815.34</ele>
        <time>2018-11-12T13:56:32Z</time>
      </trkpt>
      <trkpt lat="44.02403" lon="5.31899">
        <ele>815.34</ele>
        <time>2018-11-12T13:56:48Z</time>
      </trkpt>
      <trkpt lat="44.02413" lon="5.31881">
        <ele>815.34</ele>
        <time>2018-11-12T13:57:04Z</time>
      </trkpt>
      <trkpt lat="44.02416" lon="5.31869">
        <ele>814.37</ele>
        <time>2018-11-12T13:57:13Z</time>
      </trkpt>
      <trkpt lat="44.02421" lon="5.31858">
        <ele>815.82</ele>
        <time>2018-11-12T13:57:22Z</time>
      </trkpt>
      <trkpt lat="44.02426" lon="5.31847">
        <ele>815.82</ele>
        <time>2018-11-12T13:57:31Z</time>
      </trkpt>
      <trkpt lat="44.02439" lon="5.31848">
        <ele>816.3</ele>
        <time>2018-11-12T13:57:48Z</time>
      </trkpt>
      <trkpt lat="44.02456" lon="5.31856">
        <ele>817.74</ele>
        <time>2018-11-12T13:58:06Z</time>
      </trkpt>
      <trkpt lat="44.02467" lon="5.31861">
        <ele>818.7</ele>
        <time>2018-11-12T13:58:25Z</time>
      </trkpt>
      <trkpt lat="44.02482" lon="5.31869">
        <ele>819.66</ele>
        <time>2018-11-12T13:58:43Z</time>
      </trkpt>
      <trkpt lat="44.025" lon="5.31878">
        <ele>820.62</ele>
        <time>2018-11-12T13:59:04Z</time>
      </trkpt>
      <trkpt lat="44.02515" lon="5.31887">
        <ele>821.1</ele>
        <time>2018-11-12T13:59:25Z</time>
      </trkpt>
      <trkpt lat="44.0253" lon="5.31895">
        <ele>822.06</ele>
        <time>2018-11-12T13:59:42Z</time>
      </trkpt>
      <trkpt lat="44.02544" lon="5.31905">
        <ele>823.03</ele>
        <time>2018-11-12T13:59:59Z</time>
      </trkpt>
      <trkpt lat="44.02547" lon="5.31908">
        <ele>822.06</ele>
        <time>2018-11-12T14:00:03Z</time>
      </trkpt>
      <trkpt lat="44.02561" lon="5.31918">
        <ele>821.58</ele>
        <time>2018-11-12T14:00:21Z</time>
      </trkpt>
      <trkpt lat="44.02567" lon="5.31921">
        <ele>823.03</ele>
        <time>2018-11-12T14:00:27Z</time>
      </trkpt>
      <trkpt lat="44.02583" lon="5.31929">
        <ele>823.51</ele>
        <time>2018-11-12T14:00:42Z</time>
      </trkpt>
      <trkpt lat="44.02589" lon="5.31946">
        <ele>823.51</ele>
        <time>2018-11-12T14:00:59Z</time>
      </trkpt>
      <trkpt lat="44.02587" lon="5.31961">
        <ele>822.06</ele>
        <time>2018-11-12T14:01:12Z</time>
      </trkpt>
      <trkpt lat="44.02587" lon="5.31964">
        <ele>821.58</ele>
        <time>2018-11-12T14:01:14Z</time>
      </trkpt>
      <trkpt lat="44.02588" lon="5.31971">
        <ele>821.58</ele>
        <time>2018-11-12T14:01:19Z</time>
      </trkpt>
      <trkpt lat="44.02594" lon="5.31984">
        <ele>821.58</ele>
        <time>2018-11-12T14:01:33Z</time>
      </trkpt>
      <trkpt lat="44.02603" lon="5.32">
        <ele>820.62</ele>
        <time>2018-11-12T14:01:49Z</time>
      </trkpt>
      <trkpt lat="44.0261" lon="5.32012">
        <ele>819.66</ele>
        <time>2018-11-12T14:02:03Z</time>
      </trkpt>
      <trkpt lat="44.02619" lon="5.32027">
        <ele>817.74</ele>
        <time>2018-11-12T14:02:19Z</time>
      </trkpt>
      <trkpt lat="44.02629" lon="5.32047">
        <ele>817.74</ele>
        <time>2018-11-12T14:02:40Z</time>
      </trkpt>
      <trkpt lat="44.0263" lon="5.32049">
        <ele>817.74</ele>
        <time>2018-11-12T14:02:41Z</time>
      </trkpt>
      <trkpt lat="44.02642" lon="5.32062">
        <ele>817.26</ele>
        <time>2018-11-12T14:02:56Z</time>
      </trkpt>
      <trkpt lat="44.02659" lon="5.32066">
        <ele>816.78</ele>
        <time>2018-11-12T14:03:13Z</time>
      </trkpt>
      <trkpt lat="44.02675" lon="5.3207">
        <ele>816.3</ele>
        <time>2018-11-12T14:03:31Z</time>
      </trkpt>
      <trkpt lat="44.02691" lon="5.32075">
        <ele>815.82</ele>
        <time>2018-11-12T14:03:50Z</time>
      </trkpt>
      <trkpt lat="44.02707" lon="5.32082">
        <ele>815.34</ele>
        <time>2018-11-12T14:04:10Z</time>
      </trkpt>
      <trkpt lat="44.02718" lon="5.32088">
        <ele>813.89</ele>
        <time>2018-11-12T14:04:27Z</time>
      </trkpt>
      <trkpt lat="44.02732" lon="5.3209">
        <ele>813.89</ele>
        <time>2018-11-12T14:04:44Z</time>
      </trkpt>
      <trkpt lat="44.02735" lon="5.32088">
        <ele>815.34</ele>
        <time>2018-11-12T14:04:53Z</time>
      </trkpt>
    </trkseg>
  </trk>
</gpx>